<?xml version="1.0" encoding="UTF-8" standalone="no" ?>
<gpx xmlns="http://www.topografix.com/GPX/1/1" xmlns:xsi="http://www.w3.org/2001/XMLSchema-instance" xsi:schemaLocation="http://www.topografix.com/GPX/1/1 http://www.topografix.com/GPX/1/1/gpx.xsd" version="1.1" creator="VisuGPX - https://www.visugpx.com">
  <metadata>
    <name>64 - VTT - Abos les bosses</name>
    <desc><![CDATA[Dur dur l'entrainement pour le roc]]></desc>
  </metadata>
  <trk>
    <name><![CDATA[ACTIVE LOG 002]]></name>
    <trkseg>
      <trkpt lat="43.35805" lon="-0.56458">
        <ele>121.26355</ele>
        <time>2013-09-27T09:48:32Z</time>
      </trkpt>
      <trkpt lat="43.35804" lon="-0.56457">
        <ele>121.26355</ele>
        <time>2013-09-27T09:48:33Z</time>
      </trkpt>
      <trkpt lat="43.35802" lon="-0.56457">
        <ele>121.26355</ele>
        <time>2013-09-27T09:48:34Z</time>
      </trkpt>
      <trkpt lat="43.35807" lon="-0.56459">
        <ele>120.302124</ele>
        <time>2013-09-27T09:48:57Z</time>
      </trkpt>
      <trkpt lat="43.35809" lon="-0.5646">
        <ele>120.782837</ele>
        <time>2013-09-27T09:49:13Z</time>
      </trkpt>
      <trkpt lat="43.35819" lon="-0.56473">
        <ele>120.782837</ele>
        <time>2013-09-27T09:49:20Z</time>
      </trkpt>
      <trkpt lat="43.3582" lon="-0.565">
        <ele>120.302124</ele>
        <time>2013-09-27T09:49:27Z</time>
      </trkpt>
      <trkpt lat="43.35807" lon="-0.56511">
        <ele>120.782837</ele>
        <time>2013-09-27T09:49:32Z</time>
      </trkpt>
      <trkpt lat="43.35745" lon="-0.56536">
        <ele>120.782837</ele>
        <time>2013-09-27T09:49:49Z</time>
      </trkpt>
      <trkpt lat="43.35703" lon="-0.56563">
        <ele>119.821411</ele>
        <time>2013-09-27T09:50:03Z</time>
      </trkpt>
      <trkpt lat="43.35693" lon="-0.56589">
        <ele>120.782837</ele>
        <time>2013-09-27T09:50:09Z</time>
      </trkpt>
      <trkpt lat="43.35705" lon="-0.56641">
        <ele>120.782837</ele>
        <time>2013-09-27T09:50:18Z</time>
      </trkpt>
      <trkpt lat="43.35721" lon="-0.56687">
        <ele>120.782837</ele>
        <time>2013-09-27T09:50:26Z</time>
      </trkpt>
      <trkpt lat="43.35728" lon="-0.56718">
        <ele>121.744141</ele>
        <time>2013-09-27T09:50:31Z</time>
      </trkpt>
      <trkpt lat="43.35719" lon="-0.56743">
        <ele>121.26355</ele>
        <time>2013-09-27T09:50:36Z</time>
      </trkpt>
      <trkpt lat="43.35697" lon="-0.56757">
        <ele>120.782837</ele>
        <time>2013-09-27T09:50:41Z</time>
      </trkpt>
      <trkpt lat="43.35608" lon="-0.56814">
        <ele>119.821411</ele>
        <time>2013-09-27T09:51:02Z</time>
      </trkpt>
      <trkpt lat="43.35567" lon="-0.56843">
        <ele>120.302124</ele>
        <time>2013-09-27T09:51:12Z</time>
      </trkpt>
      <trkpt lat="43.35532" lon="-0.56856">
        <ele>119.821411</ele>
        <time>2013-09-27T09:51:21Z</time>
      </trkpt>
      <trkpt lat="43.35521" lon="-0.56834">
        <ele>119.821411</ele>
        <time>2013-09-27T09:51:27Z</time>
      </trkpt>
      <trkpt lat="43.35514" lon="-0.56746">
        <ele>120.782837</ele>
        <time>2013-09-27T09:51:43Z</time>
      </trkpt>
      <trkpt lat="43.35493" lon="-0.56635">
        <ele>121.26355</ele>
        <time>2013-09-27T09:52:02Z</time>
      </trkpt>
      <trkpt lat="43.35481" lon="-0.56598">
        <ele>121.26355</ele>
        <time>2013-09-27T09:52:09Z</time>
      </trkpt>
      <trkpt lat="43.35475" lon="-0.56583">
        <ele>121.26355</ele>
        <time>2013-09-27T09:52:12Z</time>
      </trkpt>
      <trkpt lat="43.35465" lon="-0.56506">
        <ele>121.26355</ele>
        <time>2013-09-27T09:52:25Z</time>
      </trkpt>
      <trkpt lat="43.35447" lon="-0.56481">
        <ele>121.26355</ele>
        <time>2013-09-27T09:52:32Z</time>
      </trkpt>
      <trkpt lat="43.35343" lon="-0.56478">
        <ele>122.224731</ele>
        <time>2013-09-27T09:52:54Z</time>
      </trkpt>
      <trkpt lat="43.35299" lon="-0.56477">
        <ele>121.744141</ele>
        <time>2013-09-27T09:53:03Z</time>
      </trkpt>
      <trkpt lat="43.35274" lon="-0.56483">
        <ele>122.224731</ele>
        <time>2013-09-27T09:53:08Z</time>
      </trkpt>
      <trkpt lat="43.35172" lon="-0.56464">
        <ele>123.186157</ele>
        <time>2013-09-27T09:53:29Z</time>
      </trkpt>
      <trkpt lat="43.35149" lon="-0.56457">
        <ele>123.186157</ele>
        <time>2013-09-27T09:53:34Z</time>
      </trkpt>
      <trkpt lat="43.35135" lon="-0.5644">
        <ele>122.705444</ele>
        <time>2013-09-27T09:53:38Z</time>
      </trkpt>
      <trkpt lat="43.35128" lon="-0.56417">
        <ele>122.705444</ele>
        <time>2013-09-27T09:53:42Z</time>
      </trkpt>
      <trkpt lat="43.35113" lon="-0.56372">
        <ele>123.186157</ele>
        <time>2013-09-27T09:53:50Z</time>
      </trkpt>
      <trkpt lat="43.3512" lon="-0.56228">
        <ele>121.744141</ele>
        <time>2013-09-27T09:54:11Z</time>
      </trkpt>
      <trkpt lat="43.35121" lon="-0.56132">
        <ele>121.744141</ele>
        <time>2013-09-27T09:54:25Z</time>
      </trkpt>
      <trkpt lat="43.35095" lon="-0.56043">
        <ele>122.224731</ele>
        <time>2013-09-27T09:54:40Z</time>
      </trkpt>
      <trkpt lat="43.35058" lon="-0.55933">
        <ele>122.224731</ele>
        <time>2013-09-27T09:54:58Z</time>
      </trkpt>
      <trkpt lat="43.35046" lon="-0.55897">
        <ele>122.224731</ele>
        <time>2013-09-27T09:55:04Z</time>
      </trkpt>
      <trkpt lat="43.35041" lon="-0.55886">
        <ele>122.224731</ele>
        <time>2013-09-27T09:55:06Z</time>
      </trkpt>
      <trkpt lat="43.35005" lon="-0.55777">
        <ele>123.186157</ele>
        <time>2013-09-27T09:55:24Z</time>
      </trkpt>
      <trkpt lat="43.34966" lon="-0.55664">
        <ele>123.186157</ele>
        <time>2013-09-27T09:55:43Z</time>
      </trkpt>
      <trkpt lat="43.3497" lon="-0.55633">
        <ele>123.186157</ele>
        <time>2013-09-27T09:55:48Z</time>
      </trkpt>
      <trkpt lat="43.34996" lon="-0.55592">
        <ele>123.186157</ele>
        <time>2013-09-27T09:55:56Z</time>
      </trkpt>
      <trkpt lat="43.35001" lon="-0.55553">
        <ele>122.705444</ele>
        <time>2013-09-27T09:56:02Z</time>
      </trkpt>
      <trkpt lat="43.3498" lon="-0.55475">
        <ele>123.186157</ele>
        <time>2013-09-27T09:56:14Z</time>
      </trkpt>
      <trkpt lat="43.34981" lon="-0.55443">
        <ele>122.705444</ele>
        <time>2013-09-27T09:56:19Z</time>
      </trkpt>
      <trkpt lat="43.35035" lon="-0.55309">
        <ele>123.186157</ele>
        <time>2013-09-27T09:56:41Z</time>
      </trkpt>
      <trkpt lat="43.35046" lon="-0.5528">
        <ele>123.666748</ele>
        <time>2013-09-27T09:56:46Z</time>
      </trkpt>
      <trkpt lat="43.3507" lon="-0.55275">
        <ele>124.147339</ele>
        <time>2013-09-27T09:56:52Z</time>
      </trkpt>
      <trkpt lat="43.35132" lon="-0.55337">
        <ele>123.666748</ele>
        <time>2013-09-27T09:57:07Z</time>
      </trkpt>
      <trkpt lat="43.35179" lon="-0.55376">
        <ele>123.186157</ele>
        <time>2013-09-27T09:57:18Z</time>
      </trkpt>
      <trkpt lat="43.35221" lon="-0.55372">
        <ele>123.666748</ele>
        <time>2013-09-27T09:57:27Z</time>
      </trkpt>
      <trkpt lat="43.35225" lon="-0.55336">
        <ele>124.147339</ele>
        <time>2013-09-27T09:57:34Z</time>
      </trkpt>
      <trkpt lat="43.35222" lon="-0.55313">
        <ele>124.628052</ele>
        <time>2013-09-27T09:57:38Z</time>
      </trkpt>
      <trkpt lat="43.35207" lon="-0.55213">
        <ele>125.589355</ele>
        <time>2013-09-27T09:57:56Z</time>
      </trkpt>
      <trkpt lat="43.35194" lon="-0.55192">
        <ele>126.550659</ele>
        <time>2013-09-27T09:58:01Z</time>
      </trkpt>
      <trkpt lat="43.3516" lon="-0.55138">
        <ele>128.473389</ele>
        <time>2013-09-27T09:58:14Z</time>
      </trkpt>
      <trkpt lat="43.35153" lon="-0.55131">
        <ele>128.954102</ele>
        <time>2013-09-27T09:58:16Z</time>
      </trkpt>
      <trkpt lat="43.35118" lon="-0.55115">
        <ele>129.434692</ele>
        <time>2013-09-27T09:58:24Z</time>
      </trkpt>
      <trkpt lat="43.35099" lon="-0.55107">
        <ele>129.434692</ele>
        <time>2013-09-27T09:58:28Z</time>
      </trkpt>
      <trkpt lat="43.35035" lon="-0.55073">
        <ele>128.473389</ele>
        <time>2013-09-27T09:58:41Z</time>
      </trkpt>
      <trkpt lat="43.34972" lon="-0.5499">
        <ele>127.992554</ele>
        <time>2013-09-27T09:58:58Z</time>
      </trkpt>
      <trkpt lat="43.34941" lon="-0.54931">
        <ele>130.395996</ele>
        <time>2013-09-27T09:59:11Z</time>
      </trkpt>
      <trkpt lat="43.34928" lon="-0.54919">
        <ele>130.395996</ele>
        <time>2013-09-27T09:59:15Z</time>
      </trkpt>
      <trkpt lat="43.34887" lon="-0.54897">
        <ele>129.915283</ele>
        <time>2013-09-27T09:59:25Z</time>
      </trkpt>
      <trkpt lat="43.34861" lon="-0.54893">
        <ele>129.915283</ele>
        <time>2013-09-27T09:59:30Z</time>
      </trkpt>
      <trkpt lat="43.34826" lon="-0.5485">
        <ele>129.434692</ele>
        <time>2013-09-27T09:59:40Z</time>
      </trkpt>
      <trkpt lat="43.34827" lon="-0.54829">
        <ele>129.434692</ele>
        <time>2013-09-27T09:59:43Z</time>
      </trkpt>
      <trkpt lat="43.34829" lon="-0.54817">
        <ele>129.915283</ele>
        <time>2013-09-27T09:59:45Z</time>
      </trkpt>
      <trkpt lat="43.34855" lon="-0.5478">
        <ele>130.876709</ele>
        <time>2013-09-27T09:59:56Z</time>
      </trkpt>
      <trkpt lat="43.34878" lon="-0.54761">
        <ele>134.721924</ele>
        <time>2013-09-27T10:00:08Z</time>
      </trkpt>
      <trkpt lat="43.34899" lon="-0.54727">
        <ele>137.125244</ele>
        <time>2013-09-27T10:00:22Z</time>
      </trkpt>
      <trkpt lat="43.34919" lon="-0.54681">
        <ele>139.047852</ele>
        <time>2013-09-27T10:00:36Z</time>
      </trkpt>
      <trkpt lat="43.34942" lon="-0.54637">
        <ele>142.412476</ele>
        <time>2013-09-27T10:00:52Z</time>
      </trkpt>
      <trkpt lat="43.34955" lon="-0.54633">
        <ele>144.815796</ele>
        <time>2013-09-27T10:00:59Z</time>
      </trkpt>
      <trkpt lat="43.3498" lon="-0.54636">
        <ele>147.699707</ele>
        <time>2013-09-27T10:01:13Z</time>
      </trkpt>
      <trkpt lat="43.34983" lon="-0.54637">
        <ele>148.661011</ele>
        <time>2013-09-27T10:01:15Z</time>
      </trkpt>
      <trkpt lat="43.35002" lon="-0.54641">
        <ele>151.544922</ele>
        <time>2013-09-27T10:01:26Z</time>
      </trkpt>
      <trkpt lat="43.35028" lon="-0.54648">
        <ele>154.909546</ele>
        <time>2013-09-27T10:01:41Z</time>
      </trkpt>
      <trkpt lat="43.35066" lon="-0.54651">
        <ele>158.27417</ele>
        <time>2013-09-27T10:02:01Z</time>
      </trkpt>
      <trkpt lat="43.35088" lon="-0.54659">
        <ele>161.158203</ele>
        <time>2013-09-27T10:02:16Z</time>
      </trkpt>
      <trkpt lat="43.35108" lon="-0.5464">
        <ele>163.080811</ele>
        <time>2013-09-27T10:02:29Z</time>
      </trkpt>
      <trkpt lat="43.35131" lon="-0.54624">
        <ele>165.484131</ele>
        <time>2013-09-27T10:02:41Z</time>
      </trkpt>
      <trkpt lat="43.35157" lon="-0.54607">
        <ele>168.848755</ele>
        <time>2013-09-27T10:02:54Z</time>
      </trkpt>
      <trkpt lat="43.35163" lon="-0.54592">
        <ele>169.329468</ele>
        <time>2013-09-27T10:03:00Z</time>
      </trkpt>
      <trkpt lat="43.35161" lon="-0.5455">
        <ele>171.732666</ele>
        <time>2013-09-27T10:03:15Z</time>
      </trkpt>
      <trkpt lat="43.35162" lon="-0.54537">
        <ele>172.69397</ele>
        <time>2013-09-27T10:03:20Z</time>
      </trkpt>
      <trkpt lat="43.3516" lon="-0.54529">
        <ele>173.655273</ele>
        <time>2013-09-27T10:03:23Z</time>
      </trkpt>
      <trkpt lat="43.35162" lon="-0.54505">
        <ele>177.02002</ele>
        <time>2013-09-27T10:03:33Z</time>
      </trkpt>
      <trkpt lat="43.35162" lon="-0.54491">
        <ele>179.423218</ele>
        <time>2013-09-27T10:03:39Z</time>
      </trkpt>
      <trkpt lat="43.35171" lon="-0.54448">
        <ele>181.826416</ele>
        <time>2013-09-27T10:03:58Z</time>
      </trkpt>
      <trkpt lat="43.35187" lon="-0.54384">
        <ele>182.787842</ele>
        <time>2013-09-27T10:04:17Z</time>
      </trkpt>
      <trkpt lat="43.35201" lon="-0.5432">
        <ele>181.345825</ele>
        <time>2013-09-27T10:04:29Z</time>
      </trkpt>
      <trkpt lat="43.352" lon="-0.5429">
        <ele>181.345825</ele>
        <time>2013-09-27T10:04:34Z</time>
      </trkpt>
      <trkpt lat="43.35184" lon="-0.54221">
        <ele>184.229858</ele>
        <time>2013-09-27T10:04:49Z</time>
      </trkpt>
      <trkpt lat="43.35169" lon="-0.54174">
        <ele>187.59436</ele>
        <time>2013-09-27T10:05:04Z</time>
      </trkpt>
      <trkpt lat="43.35173" lon="-0.54147">
        <ele>190.958984</ele>
        <time>2013-09-27T10:05:14Z</time>
      </trkpt>
      <trkpt lat="43.35183" lon="-0.54109">
        <ele>194.32373</ele>
        <time>2013-09-27T10:05:31Z</time>
      </trkpt>
      <trkpt lat="43.35192" lon="-0.5408">
        <ele>197.688232</ele>
        <time>2013-09-27T10:05:45Z</time>
      </trkpt>
      <trkpt lat="43.35193" lon="-0.54078">
        <ele>198.168945</ele>
        <time>2013-09-27T10:05:46Z</time>
      </trkpt>
      <trkpt lat="43.35192" lon="-0.54072">
        <ele>198.649536</ele>
        <time>2013-09-27T10:05:49Z</time>
      </trkpt>
      <trkpt lat="43.35172" lon="-0.54051">
        <ele>200.091675</ele>
        <time>2013-09-27T10:06:04Z</time>
      </trkpt>
      <trkpt lat="43.35154" lon="-0.54041">
        <ele>202.975464</ele>
        <time>2013-09-27T10:06:14Z</time>
      </trkpt>
      <trkpt lat="43.3512" lon="-0.54031">
        <ele>202.975464</ele>
        <time>2013-09-27T10:06:29Z</time>
      </trkpt>
      <trkpt lat="43.35092" lon="-0.54004">
        <ele>202.975464</ele>
        <time>2013-09-27T10:06:40Z</time>
      </trkpt>
      <trkpt lat="43.35085" lon="-0.5399">
        <ele>202.494873</ele>
        <time>2013-09-27T10:06:43Z</time>
      </trkpt>
      <trkpt lat="43.35074" lon="-0.53968">
        <ele>202.014282</ele>
        <time>2013-09-27T10:06:47Z</time>
      </trkpt>
      <trkpt lat="43.35064" lon="-0.53931">
        <ele>200.091675</ele>
        <time>2013-09-27T10:06:52Z</time>
      </trkpt>
      <trkpt lat="43.35064" lon="-0.53857">
        <ele>199.61084</ele>
        <time>2013-09-27T10:07:03Z</time>
      </trkpt>
      <trkpt lat="43.35059" lon="-0.53831">
        <ele>199.130127</ele>
        <time>2013-09-27T10:07:07Z</time>
      </trkpt>
      <trkpt lat="43.35045" lon="-0.53749">
        <ele>195.765625</ele>
        <time>2013-09-27T10:07:16Z</time>
      </trkpt>
      <trkpt lat="43.35013" lon="-0.53652">
        <ele>195.284912</ele>
        <time>2013-09-27T10:07:27Z</time>
      </trkpt>
      <trkpt lat="43.34999" lon="-0.53588">
        <ele>197.20752</ele>
        <time>2013-09-27T10:07:39Z</time>
      </trkpt>
      <trkpt lat="43.35002" lon="-0.53477">
        <ele>197.688232</ele>
        <time>2013-09-27T10:07:58Z</time>
      </trkpt>
      <trkpt lat="43.34999" lon="-0.53413">
        <ele>199.61084</ele>
        <time>2013-09-27T10:08:09Z</time>
      </trkpt>
      <trkpt lat="43.34989" lon="-0.53346">
        <ele>201.533569</ele>
        <time>2013-09-27T10:08:22Z</time>
      </trkpt>
      <trkpt lat="43.34978" lon="-0.53329">
        <ele>201.533569</ele>
        <time>2013-09-27T10:08:26Z</time>
      </trkpt>
      <trkpt lat="43.34971" lon="-0.53303">
        <ele>201.533569</ele>
        <time>2013-09-27T10:08:32Z</time>
      </trkpt>
      <trkpt lat="43.34966" lon="-0.53255">
        <ele>204.898071</ele>
        <time>2013-09-27T10:08:47Z</time>
      </trkpt>
      <trkpt lat="43.34944" lon="-0.53212">
        <ele>203.456177</ele>
        <time>2013-09-27T10:08:58Z</time>
      </trkpt>
      <trkpt lat="43.34938" lon="-0.53202">
        <ele>203.456177</ele>
        <time>2013-09-27T10:09:00Z</time>
      </trkpt>
      <trkpt lat="43.34905" lon="-0.53172">
        <ele>202.014282</ele>
        <time>2013-09-27T10:09:08Z</time>
      </trkpt>
      <trkpt lat="43.34834" lon="-0.53168">
        <ele>198.168945</ele>
        <time>2013-09-27T10:09:18Z</time>
      </trkpt>
      <trkpt lat="43.34827" lon="-0.53167">
        <ele>198.168945</ele>
        <time>2013-09-27T10:09:19Z</time>
      </trkpt>
      <trkpt lat="43.34815" lon="-0.53168">
        <ele>198.649536</ele>
        <time>2013-09-27T10:09:21Z</time>
      </trkpt>
      <trkpt lat="43.34798" lon="-0.53171">
        <ele>199.130127</ele>
        <time>2013-09-27T10:09:25Z</time>
      </trkpt>
      <trkpt lat="43.34758" lon="-0.53212">
        <ele>201.052856</ele>
        <time>2013-09-27T10:09:40Z</time>
      </trkpt>
      <trkpt lat="43.34729" lon="-0.53249">
        <ele>202.975464</ele>
        <time>2013-09-27T10:09:55Z</time>
      </trkpt>
      <trkpt lat="43.34714" lon="-0.53294">
        <ele>203.456177</ele>
        <time>2013-09-27T10:10:07Z</time>
      </trkpt>
      <trkpt lat="43.34699" lon="-0.53358">
        <ele>203.93689</ele>
        <time>2013-09-27T10:10:20Z</time>
      </trkpt>
      <trkpt lat="43.34688" lon="-0.53418">
        <ele>205.859497</ele>
        <time>2013-09-27T10:10:33Z</time>
      </trkpt>
      <trkpt lat="43.34671" lon="-0.53469">
        <ele>208.743408</ele>
        <time>2013-09-27T10:10:46Z</time>
      </trkpt>
      <trkpt lat="43.3466" lon="-0.53506">
        <ele>210.185425</ele>
        <time>2013-09-27T10:10:57Z</time>
      </trkpt>
      <trkpt lat="43.34657" lon="-0.53512">
        <ele>211.146729</ele>
        <time>2013-09-27T10:10:59Z</time>
      </trkpt>
      <trkpt lat="43.3465" lon="-0.53546">
        <ele>214.51123</ele>
        <time>2013-09-27T10:11:10Z</time>
      </trkpt>
      <trkpt lat="43.34642" lon="-0.5358">
        <ele>216.43396</ele>
        <time>2013-09-27T10:11:21Z</time>
      </trkpt>
      <trkpt lat="43.34626" lon="-0.53615">
        <ele>216.914673</ele>
        <time>2013-09-27T10:11:32Z</time>
      </trkpt>
      <trkpt lat="43.34611" lon="-0.53628">
        <ele>219.317993</ele>
        <time>2013-09-27T10:11:38Z</time>
      </trkpt>
      <trkpt lat="43.34599" lon="-0.53636">
        <ele>220.759888</ele>
        <time>2013-09-27T10:11:43Z</time>
      </trkpt>
      <trkpt lat="43.34588" lon="-0.53644">
        <ele>221.240601</ele>
        <time>2013-09-27T10:11:49Z</time>
      </trkpt>
      <trkpt lat="43.34566" lon="-0.53664">
        <ele>220.759888</ele>
        <time>2013-09-27T10:11:59Z</time>
      </trkpt>
      <trkpt lat="43.3456" lon="-0.53685">
        <ele>218.83728</ele>
        <time>2013-09-27T10:12:02Z</time>
      </trkpt>
      <trkpt lat="43.34545" lon="-0.53737">
        <ele>215.472656</ele>
        <time>2013-09-27T10:12:07Z</time>
      </trkpt>
      <trkpt lat="43.34542" lon="-0.53748">
        <ele>214.991943</ele>
        <time>2013-09-27T10:12:08Z</time>
      </trkpt>
      <trkpt lat="43.34538" lon="-0.53758">
        <ele>214.51123</ele>
        <time>2013-09-27T10:12:09Z</time>
      </trkpt>
      <trkpt lat="43.34529" lon="-0.53779">
        <ele>212.588623</ele>
        <time>2013-09-27T10:12:11Z</time>
      </trkpt>
      <trkpt lat="43.34516" lon="-0.53822">
        <ele>211.146729</ele>
        <time>2013-09-27T10:12:15Z</time>
      </trkpt>
      <trkpt lat="43.34514" lon="-0.53832">
        <ele>210.666016</ele>
        <time>2013-09-27T10:12:16Z</time>
      </trkpt>
      <trkpt lat="43.34515" lon="-0.53887">
        <ele>209.704834</ele>
        <time>2013-09-27T10:12:22Z</time>
      </trkpt>
      <trkpt lat="43.34521" lon="-0.53916">
        <ele>205.859497</ele>
        <time>2013-09-27T10:12:26Z</time>
      </trkpt>
      <trkpt lat="43.34526" lon="-0.53947">
        <ele>202.014282</ele>
        <time>2013-09-27T10:12:30Z</time>
      </trkpt>
      <trkpt lat="43.34529" lon="-0.53964">
        <ele>200.091675</ele>
        <time>2013-09-27T10:12:32Z</time>
      </trkpt>
      <trkpt lat="43.34528" lon="-0.5399">
        <ele>199.61084</ele>
        <time>2013-09-27T10:12:35Z</time>
      </trkpt>
      <trkpt lat="43.34518" lon="-0.54018">
        <ele>197.688232</ele>
        <time>2013-09-27T10:12:39Z</time>
      </trkpt>
      <trkpt lat="43.34511" lon="-0.54031">
        <ele>195.765625</ele>
        <time>2013-09-27T10:12:41Z</time>
      </trkpt>
      <trkpt lat="43.34498" lon="-0.54047">
        <ele>193.843018</ele>
        <time>2013-09-27T10:12:44Z</time>
      </trkpt>
      <trkpt lat="43.34486" lon="-0.54055">
        <ele>192.881714</ele>
        <time>2013-09-27T10:12:46Z</time>
      </trkpt>
      <trkpt lat="43.34474" lon="-0.54063">
        <ele>191.439575</ele>
        <time>2013-09-27T10:12:48Z</time>
      </trkpt>
      <trkpt lat="43.34455" lon="-0.54072">
        <ele>188.555786</ele>
        <time>2013-09-27T10:12:52Z</time>
      </trkpt>
      <trkpt lat="43.34457" lon="-0.54084">
        <ele>186.152466</ele>
        <time>2013-09-27T10:12:56Z</time>
      </trkpt>
      <trkpt lat="43.34475" lon="-0.54103">
        <ele>185.191162</ele>
        <time>2013-09-27T10:13:00Z</time>
      </trkpt>
      <trkpt lat="43.34509" lon="-0.54123">
        <ele>182.307129</ele>
        <time>2013-09-27T10:13:05Z</time>
      </trkpt>
      <trkpt lat="43.3453" lon="-0.5413">
        <ele>179.903809</ele>
        <time>2013-09-27T10:13:08Z</time>
      </trkpt>
      <trkpt lat="43.34546" lon="-0.54141">
        <ele>178.942627</ele>
        <time>2013-09-27T10:13:11Z</time>
      </trkpt>
      <trkpt lat="43.34572" lon="-0.54162">
        <ele>176.058594</ele>
        <time>2013-09-27T10:13:16Z</time>
      </trkpt>
      <trkpt lat="43.34573" lon="-0.54196">
        <ele>174.135864</ele>
        <time>2013-09-27T10:13:24Z</time>
      </trkpt>
      <trkpt lat="43.34567" lon="-0.54205">
        <ele>173.655273</ele>
        <time>2013-09-27T10:13:26Z</time>
      </trkpt>
      <trkpt lat="43.34554" lon="-0.54225">
        <ele>171.732666</ele>
        <time>2013-09-27T10:13:30Z</time>
      </trkpt>
      <trkpt lat="43.34548" lon="-0.5423">
        <ele>171.732666</ele>
        <time>2013-09-27T10:13:32Z</time>
      </trkpt>
      <trkpt lat="43.34506" lon="-0.54217">
        <ele>170.771362</ele>
        <time>2013-09-27T10:13:45Z</time>
      </trkpt>
      <trkpt lat="43.34482" lon="-0.54213">
        <ele>171.732666</ele>
        <time>2013-09-27T10:13:57Z</time>
      </trkpt>
      <trkpt lat="43.34447" lon="-0.54207">
        <ele>171.732666</ele>
        <time>2013-09-27T10:14:07Z</time>
      </trkpt>
      <trkpt lat="43.34422" lon="-0.54186">
        <ele>171.252075</ele>
        <time>2013-09-27T10:14:14Z</time>
      </trkpt>
      <trkpt lat="43.34415" lon="-0.5418">
        <ele>169.810059</ele>
        <time>2013-09-27T10:14:16Z</time>
      </trkpt>
      <trkpt lat="43.34406" lon="-0.54184">
        <ele>167.406738</ele>
        <time>2013-09-27T10:14:19Z</time>
      </trkpt>
      <trkpt lat="43.34403" lon="-0.54211">
        <ele>165.484131</ele>
        <time>2013-09-27T10:14:23Z</time>
      </trkpt>
      <trkpt lat="43.34404" lon="-0.5424">
        <ele>163.561523</ele>
        <time>2013-09-27T10:14:26Z</time>
      </trkpt>
      <trkpt lat="43.34389" lon="-0.54316">
        <ele>161.158203</ele>
        <time>2013-09-27T10:14:34Z</time>
      </trkpt>
      <trkpt lat="43.34393" lon="-0.54352">
        <ele>157.312866</ele>
        <time>2013-09-27T10:14:39Z</time>
      </trkpt>
      <trkpt lat="43.34405" lon="-0.54372">
        <ele>153.948364</ele>
        <time>2013-09-27T10:14:43Z</time>
      </trkpt>
      <trkpt lat="43.34409" lon="-0.54374">
        <ele>153.948364</ele>
        <time>2013-09-27T10:14:44Z</time>
      </trkpt>
      <trkpt lat="43.34428" lon="-0.5437">
        <ele>151.544922</ele>
        <time>2013-09-27T10:14:48Z</time>
      </trkpt>
      <trkpt lat="43.34435" lon="-0.54366">
        <ele>150.583618</ele>
        <time>2013-09-27T10:14:50Z</time>
      </trkpt>
      <trkpt lat="43.34446" lon="-0.54368">
        <ele>149.622314</ele>
        <time>2013-09-27T10:14:55Z</time>
      </trkpt>
      <trkpt lat="43.34447" lon="-0.54372">
        <ele>150.103027</ele>
        <time>2013-09-27T10:14:59Z</time>
      </trkpt>
      <trkpt lat="43.34456" lon="-0.54409">
        <ele>149.141602</ele>
        <time>2013-09-27T10:15:09Z</time>
      </trkpt>
      <trkpt lat="43.34458" lon="-0.54415">
        <ele>148.661011</ele>
        <time>2013-09-27T10:15:10Z</time>
      </trkpt>
      <trkpt lat="43.34477" lon="-0.5445">
        <ele>146.257813</ele>
        <time>2013-09-27T10:15:16Z</time>
      </trkpt>
      <trkpt lat="43.34481" lon="-0.54455">
        <ele>145.7771</ele>
        <time>2013-09-27T10:15:17Z</time>
      </trkpt>
      <trkpt lat="43.34488" lon="-0.54477">
        <ele>144.815796</ele>
        <time>2013-09-27T10:15:20Z</time>
      </trkpt>
      <trkpt lat="43.34498" lon="-0.54503">
        <ele>142.893066</ele>
        <time>2013-09-27T10:15:23Z</time>
      </trkpt>
      <trkpt lat="43.34518" lon="-0.54534">
        <ele>138.567261</ele>
        <time>2013-09-27T10:15:27Z</time>
      </trkpt>
      <trkpt lat="43.34527" lon="-0.54542">
        <ele>137.605835</ele>
        <time>2013-09-27T10:15:29Z</time>
      </trkpt>
      <trkpt lat="43.34569" lon="-0.54543">
        <ele>134.241211</ele>
        <time>2013-09-27T10:15:36Z</time>
      </trkpt>
      <trkpt lat="43.34578" lon="-0.54552">
        <ele>134.241211</ele>
        <time>2013-09-27T10:15:38Z</time>
      </trkpt>
      <trkpt lat="43.34586" lon="-0.54564">
        <ele>132.799316</ele>
        <time>2013-09-27T10:15:40Z</time>
      </trkpt>
      <trkpt lat="43.34594" lon="-0.54592">
        <ele>133.760498</ele>
        <time>2013-09-27T10:15:44Z</time>
      </trkpt>
      <trkpt lat="43.34598" lon="-0.54615">
        <ele>134.241211</ele>
        <time>2013-09-27T10:15:48Z</time>
      </trkpt>
      <trkpt lat="43.34602" lon="-0.54638">
        <ele>134.721924</ele>
        <time>2013-09-27T10:15:52Z</time>
      </trkpt>
      <trkpt lat="43.34632" lon="-0.54668">
        <ele>136.16394</ele>
        <time>2013-09-27T10:16:03Z</time>
      </trkpt>
      <trkpt lat="43.34644" lon="-0.54671">
        <ele>137.605835</ele>
        <time>2013-09-27T10:16:07Z</time>
      </trkpt>
      <trkpt lat="43.34648" lon="-0.54671">
        <ele>138.086548</ele>
        <time>2013-09-27T10:16:09Z</time>
      </trkpt>
      <trkpt lat="43.34647" lon="-0.54656">
        <ele>139.528442</ele>
        <time>2013-09-27T10:16:16Z</time>
      </trkpt>
      <trkpt lat="43.34645" lon="-0.54647">
        <ele>139.528442</ele>
        <time>2013-09-27T10:16:19Z</time>
      </trkpt>
      <trkpt lat="43.34649" lon="-0.5463">
        <ele>140.489868</ele>
        <time>2013-09-27T10:16:24Z</time>
      </trkpt>
      <trkpt lat="43.34662" lon="-0.54605">
        <ele>142.412476</ele>
        <time>2013-09-27T10:16:33Z</time>
      </trkpt>
      <trkpt lat="43.34683" lon="-0.54578">
        <ele>145.296387</ele>
        <time>2013-09-27T10:16:47Z</time>
      </trkpt>
      <trkpt lat="43.34704" lon="-0.54556">
        <ele>145.7771</ele>
        <time>2013-09-27T10:16:59Z</time>
      </trkpt>
      <trkpt lat="43.3473" lon="-0.54524">
        <ele>148.18042</ele>
        <time>2013-09-27T10:17:15Z</time>
      </trkpt>
      <trkpt lat="43.34755" lon="-0.54493">
        <ele>151.544922</ele>
        <time>2013-09-27T10:17:31Z</time>
      </trkpt>
      <trkpt lat="43.34783" lon="-0.54466">
        <ele>154.909546</ele>
        <time>2013-09-27T10:17:47Z</time>
      </trkpt>
      <trkpt lat="43.3481" lon="-0.54432">
        <ele>158.754761</ele>
        <time>2013-09-27T10:18:04Z</time>
      </trkpt>
      <trkpt lat="43.34842" lon="-0.54397">
        <ele>160.196899</ele>
        <time>2013-09-27T10:18:22Z</time>
      </trkpt>
      <trkpt lat="43.34881" lon="-0.54371">
        <ele>161.638916</ele>
        <time>2013-09-27T10:18:40Z</time>
      </trkpt>
      <trkpt lat="43.34918" lon="-0.54347">
        <ele>161.638916</ele>
        <time>2013-09-27T10:18:58Z</time>
      </trkpt>
      <trkpt lat="43.34952" lon="-0.54299">
        <ele>165.003418</ele>
        <time>2013-09-27T10:19:16Z</time>
      </trkpt>
      <trkpt lat="43.34964" lon="-0.54284">
        <ele>168.368042</ele>
        <time>2013-09-27T10:19:24Z</time>
      </trkpt>
      <trkpt lat="43.34965" lon="-0.54283">
        <ele>168.368042</ele>
        <time>2013-09-27T10:19:25Z</time>
      </trkpt>
      <trkpt lat="43.34992" lon="-0.5425">
        <ele>171.252075</ele>
        <time>2013-09-27T10:19:45Z</time>
      </trkpt>
      <trkpt lat="43.35005" lon="-0.54232">
        <ele>174.135864</ele>
        <time>2013-09-27T10:19:55Z</time>
      </trkpt>
      <trkpt lat="43.35005" lon="-0.54229">
        <ele>174.616577</ele>
        <time>2013-09-27T10:19:56Z</time>
      </trkpt>
      <trkpt lat="43.34999" lon="-0.54186">
        <ele>177.981201</ele>
        <time>2013-09-27T10:20:14Z</time>
      </trkpt>
      <trkpt lat="43.34987" lon="-0.54137">
        <ele>178.461914</ele>
        <time>2013-09-27T10:20:31Z</time>
      </trkpt>
      <trkpt lat="43.34989" lon="-0.54069">
        <ele>178.942627</ele>
        <time>2013-09-27T10:20:47Z</time>
      </trkpt>
      <trkpt lat="43.34999" lon="-0.5402">
        <ele>179.423218</ele>
        <time>2013-09-27T10:21:00Z</time>
      </trkpt>
      <trkpt lat="43.34987" lon="-0.53961">
        <ele>180.865234</ele>
        <time>2013-09-27T10:21:16Z</time>
      </trkpt>
      <trkpt lat="43.34969" lon="-0.53889">
        <ele>179.423218</ele>
        <time>2013-09-27T10:21:30Z</time>
      </trkpt>
      <trkpt lat="43.34968" lon="-0.53883">
        <ele>178.942627</ele>
        <time>2013-09-27T10:21:31Z</time>
      </trkpt>
      <trkpt lat="43.34965" lon="-0.53805">
        <ele>178.461914</ele>
        <time>2013-09-27T10:21:46Z</time>
      </trkpt>
      <trkpt lat="43.34974" lon="-0.53778">
        <ele>181.345825</ele>
        <time>2013-09-27T10:21:56Z</time>
      </trkpt>
      <trkpt lat="43.34977" lon="-0.53774">
        <ele>182.307129</ele>
        <time>2013-09-27T10:21:58Z</time>
      </trkpt>
      <trkpt lat="43.3498" lon="-0.53771">
        <ele>183.749023</ele>
        <time>2013-09-27T10:22:00Z</time>
      </trkpt>
      <trkpt lat="43.35002" lon="-0.5375">
        <ele>187.11377</ele>
        <time>2013-09-27T10:22:18Z</time>
      </trkpt>
      <trkpt lat="43.35012" lon="-0.53738">
        <ele>189.997681</ele>
        <time>2013-09-27T10:22:28Z</time>
      </trkpt>
      <trkpt lat="43.35035" lon="-0.53714">
        <ele>192.401123</ele>
        <time>2013-09-27T10:22:48Z</time>
      </trkpt>
      <trkpt lat="43.35041" lon="-0.53728">
        <ele>193.843018</ele>
        <time>2013-09-27T10:22:56Z</time>
      </trkpt>
      <trkpt lat="43.35052" lon="-0.53783">
        <ele>195.765625</ele>
        <time>2013-09-27T10:23:15Z</time>
      </trkpt>
      <trkpt lat="43.35053" lon="-0.53786">
        <ele>195.765625</ele>
        <time>2013-09-27T10:23:16Z</time>
      </trkpt>
      <trkpt lat="43.35052" lon="-0.53791">
        <ele>196.246338</ele>
        <time>2013-09-27T10:23:18Z</time>
      </trkpt>
      <trkpt lat="43.3506" lon="-0.53825">
        <ele>199.130127</ele>
        <time>2013-09-27T10:23:31Z</time>
      </trkpt>
      <trkpt lat="43.35065" lon="-0.53847">
        <ele>200.572266</ele>
        <time>2013-09-27T10:23:37Z</time>
      </trkpt>
      <trkpt lat="43.35065" lon="-0.53901">
        <ele>201.052856</ele>
        <time>2013-09-27T10:23:50Z</time>
      </trkpt>
      <trkpt lat="43.35064" lon="-0.53924">
        <ele>201.052856</ele>
        <time>2013-09-27T10:23:55Z</time>
      </trkpt>
      <trkpt lat="43.3507" lon="-0.53957">
        <ele>202.014282</ele>
        <time>2013-09-27T10:24:01Z</time>
      </trkpt>
      <trkpt lat="43.3509" lon="-0.54">
        <ele>203.456177</ele>
        <time>2013-09-27T10:24:13Z</time>
      </trkpt>
      <trkpt lat="43.3509" lon="-0.54004">
        <ele>203.93689</ele>
        <time>2013-09-27T10:24:14Z</time>
      </trkpt>
      <trkpt lat="43.35106" lon="-0.54023">
        <ele>203.93689</ele>
        <time>2013-09-27T10:24:21Z</time>
      </trkpt>
      <trkpt lat="43.35147" lon="-0.54041">
        <ele>203.456177</ele>
        <time>2013-09-27T10:24:34Z</time>
      </trkpt>
      <trkpt lat="43.3519" lon="-0.54073">
        <ele>200.572266</ele>
        <time>2013-09-27T10:24:46Z</time>
      </trkpt>
      <trkpt lat="43.3519" lon="-0.54078">
        <ele>200.091675</ele>
        <time>2013-09-27T10:24:47Z</time>
      </trkpt>
      <trkpt lat="43.3518" lon="-0.54119">
        <ele>195.765625</ele>
        <time>2013-09-27T10:24:53Z</time>
      </trkpt>
      <trkpt lat="43.35177" lon="-0.54126">
        <ele>195.284912</ele>
        <time>2013-09-27T10:24:54Z</time>
      </trkpt>
      <trkpt lat="43.35172" lon="-0.54154">
        <ele>192.401123</ele>
        <time>2013-09-27T10:24:58Z</time>
      </trkpt>
      <trkpt lat="43.35169" lon="-0.54169">
        <ele>189.997681</ele>
        <time>2013-09-27T10:25:00Z</time>
      </trkpt>
      <trkpt lat="43.35169" lon="-0.54182">
        <ele>188.075073</ele>
        <time>2013-09-27T10:25:02Z</time>
      </trkpt>
      <trkpt lat="43.35174" lon="-0.54202">
        <ele>186.633179</ele>
        <time>2013-09-27T10:25:05Z</time>
      </trkpt>
      <trkpt lat="43.35198" lon="-0.54296">
        <ele>183.268433</ele>
        <time>2013-09-27T10:25:17Z</time>
      </trkpt>
      <trkpt lat="43.352" lon="-0.54304">
        <ele>183.268433</ele>
        <time>2013-09-27T10:25:18Z</time>
      </trkpt>
      <trkpt lat="43.35191" lon="-0.54353">
        <ele>183.749023</ele>
        <time>2013-09-27T10:25:27Z</time>
      </trkpt>
      <trkpt lat="43.35195" lon="-0.54361">
        <ele>184.710571</ele>
        <time>2013-09-27T10:25:31Z</time>
      </trkpt>
      <trkpt lat="43.35218" lon="-0.54357">
        <ele>187.59436</ele>
        <time>2013-09-27T10:25:46Z</time>
      </trkpt>
      <trkpt lat="43.35226" lon="-0.54356">
        <ele>189.997681</ele>
        <time>2013-09-27T10:25:52Z</time>
      </trkpt>
      <trkpt lat="43.3523" lon="-0.54355">
        <ele>190.958984</ele>
        <time>2013-09-27T10:25:55Z</time>
      </trkpt>
      <trkpt lat="43.3524" lon="-0.54353">
        <ele>193.843018</ele>
        <time>2013-09-27T10:26:02Z</time>
      </trkpt>
      <trkpt lat="43.3526" lon="-0.5435">
        <ele>197.20752</ele>
        <time>2013-09-27T10:26:17Z</time>
      </trkpt>
      <trkpt lat="43.3527" lon="-0.54347">
        <ele>200.572266</ele>
        <time>2013-09-27T10:26:25Z</time>
      </trkpt>
      <trkpt lat="43.35271" lon="-0.54346">
        <ele>200.091675</ele>
        <time>2013-09-27T10:26:26Z</time>
      </trkpt>
      <trkpt lat="43.35279" lon="-0.54345">
        <ele>200.091675</ele>
        <time>2013-09-27T10:26:32Z</time>
      </trkpt>
      <trkpt lat="43.35295" lon="-0.54343">
        <ele>203.93689</ele>
        <time>2013-09-27T10:26:44Z</time>
      </trkpt>
      <trkpt lat="43.35298" lon="-0.54344">
        <ele>204.41748</ele>
        <time>2013-09-27T10:26:47Z</time>
      </trkpt>
      <trkpt lat="43.353" lon="-0.54342">
        <ele>204.898071</ele>
        <time>2013-09-27T10:26:49Z</time>
      </trkpt>
      <trkpt lat="43.35293" lon="-0.54298">
        <ele>203.93689</ele>
        <time>2013-09-27T10:27:03Z</time>
      </trkpt>
      <trkpt lat="43.3528" lon="-0.5422">
        <ele>202.494873</ele>
        <time>2013-09-27T10:27:21Z</time>
      </trkpt>
      <trkpt lat="43.35266" lon="-0.54165">
        <ele>202.494873</ele>
        <time>2013-09-27T10:27:37Z</time>
      </trkpt>
      <trkpt lat="43.35247" lon="-0.54117">
        <ele>202.975464</ele>
        <time>2013-09-27T10:27:52Z</time>
      </trkpt>
      <trkpt lat="43.35249" lon="-0.54106">
        <ele>204.41748</ele>
        <time>2013-09-27T10:28:04Z</time>
      </trkpt>
      <trkpt lat="43.35251" lon="-0.54095">
        <ele>205.859497</ele>
        <time>2013-09-27T10:28:19Z</time>
      </trkpt>
      <trkpt lat="43.3525" lon="-0.54095">
        <ele>206.340088</ele>
        <time>2013-09-27T10:28:23Z</time>
      </trkpt>
      <trkpt lat="43.35241" lon="-0.54069">
        <ele>205.859497</ele>
        <time>2013-09-27T10:28:36Z</time>
      </trkpt>
      <trkpt lat="43.35239" lon="-0.54064">
        <ele>207.301392</ele>
        <time>2013-09-27T10:28:38Z</time>
      </trkpt>
      <trkpt lat="43.35233" lon="-0.54057">
        <ele>208.262817</ele>
        <time>2013-09-27T10:28:43Z</time>
      </trkpt>
      <trkpt lat="43.35231" lon="-0.54051">
        <ele>208.743408</ele>
        <time>2013-09-27T10:28:46Z</time>
      </trkpt>
      <trkpt lat="43.35231" lon="-0.54041">
        <ele>211.146729</ele>
        <time>2013-09-27T10:28:52Z</time>
      </trkpt>
      <trkpt lat="43.3523" lon="-0.5403">
        <ele>212.588623</ele>
        <time>2013-09-27T10:28:58Z</time>
      </trkpt>
      <trkpt lat="43.35224" lon="-0.54012">
        <ele>213.069336</ele>
        <time>2013-09-27T10:29:09Z</time>
      </trkpt>
      <trkpt lat="43.35216" lon="-0.54001">
        <ele>214.03064</ele>
        <time>2013-09-27T10:29:16Z</time>
      </trkpt>
      <trkpt lat="43.35211" lon="-0.53982">
        <ele>216.914673</ele>
        <time>2013-09-27T10:29:25Z</time>
      </trkpt>
      <trkpt lat="43.35209" lon="-0.53972">
        <ele>216.914673</ele>
        <time>2013-09-27T10:29:32Z</time>
      </trkpt>
      <trkpt lat="43.35208" lon="-0.53972">
        <ele>218.83728</ele>
        <time>2013-09-27T10:29:34Z</time>
      </trkpt>
      <trkpt lat="43.35207" lon="-0.53971">
        <ele>218.356567</ele>
        <time>2013-09-27T10:29:36Z</time>
      </trkpt>
      <trkpt lat="43.35207" lon="-0.53961">
        <ele>221.240601</ele>
        <time>2013-09-27T10:29:48Z</time>
      </trkpt>
      <trkpt lat="43.35204" lon="-0.53946">
        <ele>224.124512</ele>
        <time>2013-09-27T10:30:04Z</time>
      </trkpt>
      <trkpt lat="43.35201" lon="-0.53935">
        <ele>226.527832</ele>
        <time>2013-09-27T10:30:18Z</time>
      </trkpt>
      <trkpt lat="43.35191" lon="-0.53926">
        <ele>228.931152</ele>
        <time>2013-09-27T10:30:36Z</time>
      </trkpt>
      <trkpt lat="43.35186" lon="-0.53919">
        <ele>232.295776</ele>
        <time>2013-09-27T10:30:48Z</time>
      </trkpt>
      <trkpt lat="43.3518" lon="-0.53911">
        <ele>235.660278</ele>
        <time>2013-09-27T10:31:04Z</time>
      </trkpt>
      <trkpt lat="43.35174" lon="-0.53896">
        <ele>239.024902</ele>
        <time>2013-09-27T10:31:21Z</time>
      </trkpt>
      <trkpt lat="43.35171" lon="-0.53893">
        <ele>238.544312</ele>
        <time>2013-09-27T10:31:26Z</time>
      </trkpt>
      <trkpt lat="43.35166" lon="-0.53876">
        <ele>237.102295</ele>
        <time>2013-09-27T10:31:37Z</time>
      </trkpt>
      <trkpt lat="43.35161" lon="-0.53863">
        <ele>233.25708</ele>
        <time>2013-09-27T10:31:45Z</time>
      </trkpt>
      <trkpt lat="43.35159" lon="-0.53856">
        <ele>231.814941</ele>
        <time>2013-09-27T10:31:48Z</time>
      </trkpt>
      <trkpt lat="43.35158" lon="-0.53853">
        <ele>230.373047</ele>
        <time>2013-09-27T10:31:50Z</time>
      </trkpt>
      <trkpt lat="43.35156" lon="-0.53833">
        <ele>226.527832</ele>
        <time>2013-09-27T10:31:56Z</time>
      </trkpt>
      <trkpt lat="43.35149" lon="-0.53811">
        <ele>223.163208</ele>
        <time>2013-09-27T10:32:01Z</time>
      </trkpt>
      <trkpt lat="43.35144" lon="-0.53794">
        <ele>219.798584</ele>
        <time>2013-09-27T10:32:04Z</time>
      </trkpt>
      <trkpt lat="43.35141" lon="-0.53782">
        <ele>217.395386</ele>
        <time>2013-09-27T10:32:06Z</time>
      </trkpt>
      <trkpt lat="43.35134" lon="-0.53757">
        <ele>215.953247</ele>
        <time>2013-09-27T10:32:09Z</time>
      </trkpt>
      <trkpt lat="43.35124" lon="-0.53716">
        <ele>212.588623</ele>
        <time>2013-09-27T10:32:13Z</time>
      </trkpt>
      <trkpt lat="43.35117" lon="-0.53683">
        <ele>211.627441</ele>
        <time>2013-09-27T10:32:16Z</time>
      </trkpt>
      <trkpt lat="43.35101" lon="-0.53647">
        <ele>210.666016</ele>
        <time>2013-09-27T10:32:20Z</time>
      </trkpt>
      <trkpt lat="43.3508" lon="-0.53619">
        <ele>211.146729</ele>
        <time>2013-09-27T10:32:24Z</time>
      </trkpt>
      <trkpt lat="43.35073" lon="-0.53585">
        <ele>211.627441</ele>
        <time>2013-09-27T10:32:31Z</time>
      </trkpt>
      <trkpt lat="43.35074" lon="-0.53554">
        <ele>214.991943</ele>
        <time>2013-09-27T10:32:45Z</time>
      </trkpt>
      <trkpt lat="43.35068" lon="-0.53525">
        <ele>217.875977</ele>
        <time>2013-09-27T10:32:59Z</time>
      </trkpt>
      <trkpt lat="43.35056" lon="-0.53477">
        <ele>217.875977</ele>
        <time>2013-09-27T10:33:15Z</time>
      </trkpt>
      <trkpt lat="43.3505" lon="-0.53433">
        <ele>214.991943</ele>
        <time>2013-09-27T10:33:21Z</time>
      </trkpt>
      <trkpt lat="43.35038" lon="-0.53382">
        <ele>215.472656</ele>
        <time>2013-09-27T10:33:28Z</time>
      </trkpt>
      <trkpt lat="43.35023" lon="-0.53346">
        <ele>213.069336</ele>
        <time>2013-09-27T10:33:40Z</time>
      </trkpt>
      <trkpt lat="43.35011" lon="-0.5333">
        <ele>211.627441</ele>
        <time>2013-09-27T10:33:43Z</time>
      </trkpt>
      <trkpt lat="43.35003" lon="-0.53321">
        <ele>210.666016</ele>
        <time>2013-09-27T10:33:45Z</time>
      </trkpt>
      <trkpt lat="43.3499" lon="-0.53308">
        <ele>209.704834</ele>
        <time>2013-09-27T10:33:48Z</time>
      </trkpt>
      <trkpt lat="43.34974" lon="-0.5329">
        <ele>207.782104</ele>
        <time>2013-09-27T10:33:52Z</time>
      </trkpt>
      <trkpt lat="43.34969" lon="-0.53277">
        <ele>206.820679</ele>
        <time>2013-09-27T10:33:54Z</time>
      </trkpt>
      <trkpt lat="43.34968" lon="-0.53264">
        <ele>206.820679</ele>
        <time>2013-09-27T10:33:57Z</time>
      </trkpt>
      <trkpt lat="43.34974" lon="-0.53262">
        <ele>208.743408</ele>
        <time>2013-09-27T10:34:02Z</time>
      </trkpt>
      <trkpt lat="43.3498" lon="-0.53269">
        <ele>210.185425</ele>
        <time>2013-09-27T10:34:10Z</time>
      </trkpt>
      <trkpt lat="43.34985" lon="-0.5328">
        <ele>210.666016</ele>
        <time>2013-09-27T10:34:16Z</time>
      </trkpt>
      <trkpt lat="43.34991" lon="-0.5329">
        <ele>210.185425</ele>
        <time>2013-09-27T10:34:28Z</time>
      </trkpt>
      <trkpt lat="43.34992" lon="-0.53296">
        <ele>211.146729</ele>
        <time>2013-09-27T10:34:38Z</time>
      </trkpt>
      <trkpt lat="43.35003" lon="-0.53297">
        <ele>213.550049</ele>
        <time>2013-09-27T10:34:47Z</time>
      </trkpt>
      <trkpt lat="43.35009" lon="-0.53295">
        <ele>215.472656</ele>
        <time>2013-09-27T10:35:02Z</time>
      </trkpt>
      <trkpt lat="43.35019" lon="-0.53296">
        <ele>218.83728</ele>
        <time>2013-09-27T10:35:18Z</time>
      </trkpt>
      <trkpt lat="43.35028" lon="-0.53303">
        <ele>221.721191</ele>
        <time>2013-09-27T10:35:38Z</time>
      </trkpt>
      <trkpt lat="43.35031" lon="-0.53309">
        <ele>221.240601</ele>
        <time>2013-09-27T10:35:49Z</time>
      </trkpt>
      <trkpt lat="43.35034" lon="-0.5333">
        <ele>219.317993</ele>
        <time>2013-09-27T10:35:57Z</time>
      </trkpt>
      <trkpt lat="43.35034" lon="-0.53363">
        <ele>216.43396</ele>
        <time>2013-09-27T10:36:07Z</time>
      </trkpt>
      <trkpt lat="43.35035" lon="-0.53372">
        <ele>214.991943</ele>
        <time>2013-09-27T10:36:18Z</time>
      </trkpt>
      <trkpt lat="43.35035" lon="-0.53372">
        <ele>215.472656</ele>
        <time>2013-09-27T10:36:19Z</time>
      </trkpt>
      <trkpt lat="43.35023" lon="-0.53345">
        <ele>214.991943</ele>
        <time>2013-09-27T10:36:33Z</time>
      </trkpt>
      <trkpt lat="43.35011" lon="-0.53331">
        <ele>211.627441</ele>
        <time>2013-09-27T10:36:36Z</time>
      </trkpt>
      <trkpt lat="43.35006" lon="-0.53325">
        <ele>211.627441</ele>
        <time>2013-09-27T10:36:37Z</time>
      </trkpt>
      <trkpt lat="43.34996" lon="-0.53313">
        <ele>210.185425</ele>
        <time>2013-09-27T10:36:39Z</time>
      </trkpt>
      <trkpt lat="43.34991" lon="-0.53308">
        <ele>210.185425</ele>
        <time>2013-09-27T10:36:40Z</time>
      </trkpt>
      <trkpt lat="43.34966" lon="-0.53257">
        <ele>206.820679</ele>
        <time>2013-09-27T10:36:48Z</time>
      </trkpt>
      <trkpt lat="43.34957" lon="-0.53232">
        <ele>206.820679</ele>
        <time>2013-09-27T10:36:52Z</time>
      </trkpt>
      <trkpt lat="43.34927" lon="-0.53184">
        <ele>205.378784</ele>
        <time>2013-09-27T10:37:00Z</time>
      </trkpt>
      <trkpt lat="43.34907" lon="-0.53171">
        <ele>203.93689</ele>
        <time>2013-09-27T10:37:04Z</time>
      </trkpt>
      <trkpt lat="43.34873" lon="-0.53171">
        <ele>201.533569</ele>
        <time>2013-09-27T10:37:09Z</time>
      </trkpt>
      <trkpt lat="43.34828" lon="-0.53166">
        <ele>200.572266</ele>
        <time>2013-09-27T10:37:15Z</time>
      </trkpt>
      <trkpt lat="43.34807" lon="-0.53165">
        <ele>200.091675</ele>
        <time>2013-09-27T10:37:19Z</time>
      </trkpt>
      <trkpt lat="43.34766" lon="-0.53147">
        <ele>202.975464</ele>
        <time>2013-09-27T10:37:33Z</time>
      </trkpt>
      <trkpt lat="43.3476" lon="-0.53146">
        <ele>203.93689</ele>
        <time>2013-09-27T10:37:36Z</time>
      </trkpt>
      <trkpt lat="43.34746" lon="-0.53115">
        <ele>204.898071</ele>
        <time>2013-09-27T10:37:48Z</time>
      </trkpt>
      <trkpt lat="43.34741" lon="-0.53107">
        <ele>206.820679</ele>
        <time>2013-09-27T10:37:52Z</time>
      </trkpt>
      <trkpt lat="43.34726" lon="-0.53084">
        <ele>210.185425</ele>
        <time>2013-09-27T10:38:05Z</time>
      </trkpt>
      <trkpt lat="43.34703" lon="-0.53066">
        <ele>210.185425</ele>
        <time>2013-09-27T10:38:15Z</time>
      </trkpt>
      <trkpt lat="43.34686" lon="-0.5305">
        <ele>212.108032</ele>
        <time>2013-09-27T10:38:25Z</time>
      </trkpt>
      <trkpt lat="43.34662" lon="-0.53027">
        <ele>214.51123</ele>
        <time>2013-09-27T10:38:38Z</time>
      </trkpt>
      <trkpt lat="43.34661" lon="-0.53026">
        <ele>214.51123</ele>
        <time>2013-09-27T10:38:39Z</time>
      </trkpt>
      <trkpt lat="43.3465" lon="-0.53017">
        <ele>214.51123</ele>
        <time>2013-09-27T10:38:45Z</time>
      </trkpt>
      <trkpt lat="43.34631" lon="-0.52997">
        <ele>216.914673</ele>
        <time>2013-09-27T10:38:59Z</time>
      </trkpt>
      <trkpt lat="43.34627" lon="-0.52991">
        <ele>215.472656</ele>
        <time>2013-09-27T10:39:02Z</time>
      </trkpt>
      <trkpt lat="43.34602" lon="-0.52966">
        <ele>217.875977</ele>
        <time>2013-09-27T10:39:14Z</time>
      </trkpt>
      <trkpt lat="43.34581" lon="-0.52948">
        <ele>218.83728</ele>
        <time>2013-09-27T10:39:24Z</time>
      </trkpt>
      <trkpt lat="43.34555" lon="-0.52926">
        <ele>219.317993</ele>
        <time>2013-09-27T10:39:34Z</time>
      </trkpt>
      <trkpt lat="43.34536" lon="-0.52906">
        <ele>218.83728</ele>
        <time>2013-09-27T10:39:42Z</time>
      </trkpt>
      <trkpt lat="43.34526" lon="-0.52889">
        <ele>217.875977</ele>
        <time>2013-09-27T10:39:45Z</time>
      </trkpt>
      <trkpt lat="43.34501" lon="-0.52858">
        <ele>217.395386</ele>
        <time>2013-09-27T10:39:50Z</time>
      </trkpt>
      <trkpt lat="43.34476" lon="-0.52832">
        <ele>220.759888</ele>
        <time>2013-09-27T10:40:01Z</time>
      </trkpt>
      <trkpt lat="43.34462" lon="-0.52789">
        <ele>218.83728</ele>
        <time>2013-09-27T10:40:13Z</time>
      </trkpt>
      <trkpt lat="43.34462" lon="-0.52782">
        <ele>218.83728</ele>
        <time>2013-09-27T10:40:14Z</time>
      </trkpt>
      <trkpt lat="43.34458" lon="-0.52742">
        <ele>219.798584</ele>
        <time>2013-09-27T10:40:22Z</time>
      </trkpt>
      <trkpt lat="43.34451" lon="-0.52706">
        <ele>219.317993</ele>
        <time>2013-09-27T10:40:33Z</time>
      </trkpt>
      <trkpt lat="43.34438" lon="-0.52699">
        <ele>221.240601</ele>
        <time>2013-09-27T10:40:39Z</time>
      </trkpt>
      <trkpt lat="43.3443" lon="-0.52674">
        <ele>218.356567</ele>
        <time>2013-09-27T10:40:47Z</time>
      </trkpt>
      <trkpt lat="43.34425" lon="-0.52651">
        <ele>215.953247</ele>
        <time>2013-09-27T10:40:54Z</time>
      </trkpt>
      <trkpt lat="43.34423" lon="-0.52645">
        <ele>216.43396</ele>
        <time>2013-09-27T10:40:55Z</time>
      </trkpt>
      <trkpt lat="43.34418" lon="-0.5263">
        <ele>217.875977</ele>
        <time>2013-09-27T10:40:58Z</time>
      </trkpt>
      <trkpt lat="43.34415" lon="-0.52613">
        <ele>217.875977</ele>
        <time>2013-09-27T10:41:04Z</time>
      </trkpt>
      <trkpt lat="43.34407" lon="-0.52612">
        <ele>216.914673</ele>
        <time>2013-09-27T10:41:08Z</time>
      </trkpt>
      <trkpt lat="43.34393" lon="-0.52607">
        <ele>215.953247</ele>
        <time>2013-09-27T10:41:18Z</time>
      </trkpt>
      <trkpt lat="43.34377" lon="-0.52581">
        <ele>215.953247</ele>
        <time>2013-09-27T10:41:30Z</time>
      </trkpt>
      <trkpt lat="43.34372" lon="-0.52571">
        <ele>214.03064</ele>
        <time>2013-09-27T10:41:32Z</time>
      </trkpt>
      <trkpt lat="43.34363" lon="-0.52524">
        <ele>213.550049</ele>
        <time>2013-09-27T10:41:42Z</time>
      </trkpt>
      <trkpt lat="43.34359" lon="-0.52517">
        <ele>213.550049</ele>
        <time>2013-09-27T10:41:44Z</time>
      </trkpt>
      <trkpt lat="43.34347" lon="-0.52495">
        <ele>212.588623</ele>
        <time>2013-09-27T10:41:53Z</time>
      </trkpt>
      <trkpt lat="43.34344" lon="-0.52489">
        <ele>212.588623</ele>
        <time>2013-09-27T10:41:55Z</time>
      </trkpt>
      <trkpt lat="43.34332" lon="-0.52476">
        <ele>211.627441</ele>
        <time>2013-09-27T10:41:59Z</time>
      </trkpt>
      <trkpt lat="43.34298" lon="-0.52433">
        <ele>210.666016</ele>
        <time>2013-09-27T10:42:09Z</time>
      </trkpt>
      <trkpt lat="43.34282" lon="-0.52377">
        <ele>213.069336</ele>
        <time>2013-09-27T10:42:22Z</time>
      </trkpt>
      <trkpt lat="43.34262" lon="-0.52341">
        <ele>214.51123</ele>
        <time>2013-09-27T10:42:34Z</time>
      </trkpt>
      <trkpt lat="43.34226" lon="-0.52331">
        <ele>214.991943</ele>
        <time>2013-09-27T10:42:46Z</time>
      </trkpt>
      <trkpt lat="43.34197" lon="-0.52317">
        <ele>216.914673</ele>
        <time>2013-09-27T10:42:57Z</time>
      </trkpt>
      <trkpt lat="43.34173" lon="-0.52291">
        <ele>219.798584</ele>
        <time>2013-09-27T10:43:09Z</time>
      </trkpt>
      <trkpt lat="43.34144" lon="-0.52273">
        <ele>221.240601</ele>
        <time>2013-09-27T10:43:21Z</time>
      </trkpt>
      <trkpt lat="43.34135" lon="-0.52269">
        <ele>222.201782</ele>
        <time>2013-09-27T10:43:25Z</time>
      </trkpt>
      <trkpt lat="43.34124" lon="-0.52263">
        <ele>221.721191</ele>
        <time>2013-09-27T10:43:29Z</time>
      </trkpt>
      <trkpt lat="43.34098" lon="-0.52234">
        <ele>219.798584</ele>
        <time>2013-09-27T10:43:35Z</time>
      </trkpt>
      <trkpt lat="43.34084" lon="-0.52217">
        <ele>219.317993</ele>
        <time>2013-09-27T10:43:38Z</time>
      </trkpt>
      <trkpt lat="43.34045" lon="-0.52195">
        <ele>217.875977</ele>
        <time>2013-09-27T10:43:45Z</time>
      </trkpt>
      <trkpt lat="43.34037" lon="-0.5219">
        <ele>217.875977</ele>
        <time>2013-09-27T10:43:47Z</time>
      </trkpt>
      <trkpt lat="43.34019" lon="-0.52178">
        <ele>217.875977</ele>
        <time>2013-09-27T10:43:52Z</time>
      </trkpt>
      <trkpt lat="43.34014" lon="-0.52175">
        <ele>217.875977</ele>
        <time>2013-09-27T10:43:54Z</time>
      </trkpt>
      <trkpt lat="43.34011" lon="-0.52187">
        <ele>216.914673</ele>
        <time>2013-09-27T10:44:00Z</time>
      </trkpt>
      <trkpt lat="43.34017" lon="-0.52199">
        <ele>215.953247</ele>
        <time>2013-09-27T10:44:02Z</time>
      </trkpt>
      <trkpt lat="43.34036" lon="-0.52248">
        <ele>212.588623</ele>
        <time>2013-09-27T10:44:08Z</time>
      </trkpt>
      <trkpt lat="43.34039" lon="-0.52255">
        <ele>212.588623</ele>
        <time>2013-09-27T10:44:09Z</time>
      </trkpt>
      <trkpt lat="43.3405" lon="-0.52272">
        <ele>210.666016</ele>
        <time>2013-09-27T10:44:12Z</time>
      </trkpt>
      <trkpt lat="43.34059" lon="-0.52286">
        <ele>210.666016</ele>
        <time>2013-09-27T10:44:15Z</time>
      </trkpt>
      <trkpt lat="43.34081" lon="-0.52326">
        <ele>213.069336</ele>
        <time>2013-09-27T10:44:26Z</time>
      </trkpt>
      <trkpt lat="43.34097" lon="-0.52383">
        <ele>213.550049</ele>
        <time>2013-09-27T10:44:37Z</time>
      </trkpt>
      <trkpt lat="43.34117" lon="-0.5243">
        <ele>213.550049</ele>
        <time>2013-09-27T10:44:47Z</time>
      </trkpt>
      <trkpt lat="43.3412" lon="-0.52441">
        <ele>213.550049</ele>
        <time>2013-09-27T10:44:49Z</time>
      </trkpt>
      <trkpt lat="43.34126" lon="-0.52464">
        <ele>213.550049</ele>
        <time>2013-09-27T10:44:53Z</time>
      </trkpt>
      <trkpt lat="43.34133" lon="-0.52481">
        <ele>213.550049</ele>
        <time>2013-09-27T10:44:56Z</time>
      </trkpt>
      <trkpt lat="43.34138" lon="-0.52494">
        <ele>212.588623</ele>
        <time>2013-09-27T10:44:58Z</time>
      </trkpt>
      <trkpt lat="43.34145" lon="-0.52557">
        <ele>212.588623</ele>
        <time>2013-09-27T10:45:10Z</time>
      </trkpt>
      <trkpt lat="43.34094" lon="-0.526">
        <ele>210.185425</ele>
        <time>2013-09-27T10:45:22Z</time>
      </trkpt>
      <trkpt lat="43.34042" lon="-0.52626">
        <ele>211.627441</ele>
        <time>2013-09-27T10:45:37Z</time>
      </trkpt>
      <trkpt lat="43.34012" lon="-0.52659">
        <ele>213.069336</ele>
        <time>2013-09-27T10:45:48Z</time>
      </trkpt>
      <trkpt lat="43.33995" lon="-0.52704">
        <ele>214.51123</ele>
        <time>2013-09-27T10:45:59Z</time>
      </trkpt>
      <trkpt lat="43.33965" lon="-0.52793">
        <ele>213.069336</ele>
        <time>2013-09-27T10:46:16Z</time>
      </trkpt>
      <trkpt lat="43.33952" lon="-0.52863">
        <ele>210.185425</ele>
        <time>2013-09-27T10:46:24Z</time>
      </trkpt>
      <trkpt lat="43.33943" lon="-0.52983">
        <ele>207.301392</ele>
        <time>2013-09-27T10:46:38Z</time>
      </trkpt>
      <trkpt lat="43.33951" lon="-0.53078">
        <ele>207.301392</ele>
        <time>2013-09-27T10:46:55Z</time>
      </trkpt>
      <trkpt lat="43.33966" lon="-0.53145">
        <ele>209.704834</ele>
        <time>2013-09-27T10:47:11Z</time>
      </trkpt>
      <trkpt lat="43.33988" lon="-0.53177">
        <ele>211.146729</ele>
        <time>2013-09-27T10:47:25Z</time>
      </trkpt>
      <trkpt lat="43.33987" lon="-0.53184">
        <ele>209.704834</ele>
        <time>2013-09-27T10:47:27Z</time>
      </trkpt>
      <trkpt lat="43.33984" lon="-0.53195">
        <ele>208.262817</ele>
        <time>2013-09-27T10:47:30Z</time>
      </trkpt>
      <trkpt lat="43.33969" lon="-0.53213">
        <ele>204.41748</ele>
        <time>2013-09-27T10:47:37Z</time>
      </trkpt>
      <trkpt lat="43.33966" lon="-0.53216">
        <ele>204.41748</ele>
        <time>2013-09-27T10:47:38Z</time>
      </trkpt>
      <trkpt lat="43.33955" lon="-0.53223">
        <ele>202.014282</ele>
        <time>2013-09-27T10:47:42Z</time>
      </trkpt>
      <trkpt lat="43.33946" lon="-0.53226">
        <ele>200.572266</ele>
        <time>2013-09-27T10:47:45Z</time>
      </trkpt>
      <trkpt lat="43.33939" lon="-0.53228">
        <ele>199.130127</ele>
        <time>2013-09-27T10:47:47Z</time>
      </trkpt>
      <trkpt lat="43.33916" lon="-0.53222">
        <ele>197.20752</ele>
        <time>2013-09-27T10:47:57Z</time>
      </trkpt>
      <trkpt lat="43.33901" lon="-0.53197">
        <ele>197.20752</ele>
        <time>2013-09-27T10:48:07Z</time>
      </trkpt>
      <trkpt lat="43.33896" lon="-0.53191">
        <ele>197.20752</ele>
        <time>2013-09-27T10:48:10Z</time>
      </trkpt>
      <trkpt lat="43.33875" lon="-0.53207">
        <ele>194.32373</ele>
        <time>2013-09-27T10:48:18Z</time>
      </trkpt>
      <trkpt lat="43.3386" lon="-0.53203">
        <ele>192.881714</ele>
        <time>2013-09-27T10:48:23Z</time>
      </trkpt>
      <trkpt lat="43.33853" lon="-0.532">
        <ele>192.401123</ele>
        <time>2013-09-27T10:48:28Z</time>
      </trkpt>
      <trkpt lat="43.33843" lon="-0.53192">
        <ele>191.439575</ele>
        <time>2013-09-27T10:48:34Z</time>
      </trkpt>
      <trkpt lat="43.33839" lon="-0.53183">
        <ele>191.439575</ele>
        <time>2013-09-27T10:48:38Z</time>
      </trkpt>
      <trkpt lat="43.3383" lon="-0.53182">
        <ele>190.958984</ele>
        <time>2013-09-27T10:48:43Z</time>
      </trkpt>
      <trkpt lat="43.33818" lon="-0.53169">
        <ele>188.075073</ele>
        <time>2013-09-27T10:48:55Z</time>
      </trkpt>
      <trkpt lat="43.33814" lon="-0.53162">
        <ele>189.516968</ele>
        <time>2013-09-27T10:49:14Z</time>
      </trkpt>
      <trkpt lat="43.33803" lon="-0.53152">
        <ele>187.11377</ele>
        <time>2013-09-27T10:49:21Z</time>
      </trkpt>
      <trkpt lat="43.33784" lon="-0.53155">
        <ele>184.710571</ele>
        <time>2013-09-27T10:49:27Z</time>
      </trkpt>
      <trkpt lat="43.33778" lon="-0.53152">
        <ele>183.749023</ele>
        <time>2013-09-27T10:49:29Z</time>
      </trkpt>
      <trkpt lat="43.3376" lon="-0.53152">
        <ele>181.826416</ele>
        <time>2013-09-27T10:49:35Z</time>
      </trkpt>
      <trkpt lat="43.3374" lon="-0.53169">
        <ele>178.942627</ele>
        <time>2013-09-27T10:49:41Z</time>
      </trkpt>
      <trkpt lat="43.3372" lon="-0.53162">
        <ele>175.577881</ele>
        <time>2013-09-27T10:49:47Z</time>
      </trkpt>
      <trkpt lat="43.33714" lon="-0.53155">
        <ele>174.135864</ele>
        <time>2013-09-27T10:49:49Z</time>
      </trkpt>
      <trkpt lat="43.33694" lon="-0.53135">
        <ele>171.732666</ele>
        <time>2013-09-27T10:49:57Z</time>
      </trkpt>
      <trkpt lat="43.33674" lon="-0.53129">
        <ele>167.887329</ele>
        <time>2013-09-27T10:50:04Z</time>
      </trkpt>
      <trkpt lat="43.33662" lon="-0.53138">
        <ele>165.003418</ele>
        <time>2013-09-27T10:50:09Z</time>
      </trkpt>
      <trkpt lat="43.33652" lon="-0.53152">
        <ele>164.042114</ele>
        <time>2013-09-27T10:50:13Z</time>
      </trkpt>
      <trkpt lat="43.33646" lon="-0.53158">
        <ele>162.119507</ele>
        <time>2013-09-27T10:50:15Z</time>
      </trkpt>
      <trkpt lat="43.33621" lon="-0.53161">
        <ele>158.754761</ele>
        <time>2013-09-27T10:50:22Z</time>
      </trkpt>
      <trkpt lat="43.3361" lon="-0.53163">
        <ele>156.832153</ele>
        <time>2013-09-27T10:50:25Z</time>
      </trkpt>
      <trkpt lat="43.33588" lon="-0.53185">
        <ele>156.351563</ele>
        <time>2013-09-27T10:50:34Z</time>
      </trkpt>
      <trkpt lat="43.33578" lon="-0.53181">
        <ele>156.351563</ele>
        <time>2013-09-27T10:50:37Z</time>
      </trkpt>
      <trkpt lat="43.33544" lon="-0.53183">
        <ele>152.986938</ele>
        <time>2013-09-27T10:50:47Z</time>
      </trkpt>
      <trkpt lat="43.33531" lon="-0.532">
        <ele>151.064209</ele>
        <time>2013-09-27T10:50:51Z</time>
      </trkpt>
      <trkpt lat="43.33505" lon="-0.53215">
        <ele>148.18042</ele>
        <time>2013-09-27T10:50:58Z</time>
      </trkpt>
      <trkpt lat="43.33482" lon="-0.53235">
        <ele>146.738403</ele>
        <time>2013-09-27T10:51:08Z</time>
      </trkpt>
      <trkpt lat="43.33459" lon="-0.53254">
        <ele>145.7771</ele>
        <time>2013-09-27T10:51:18Z</time>
      </trkpt>
      <trkpt lat="43.33458" lon="-0.53253">
        <ele>145.7771</ele>
        <time>2013-09-27T10:51:20Z</time>
      </trkpt>
      <trkpt lat="43.33472" lon="-0.53243">
        <ele>146.257813</ele>
        <time>2013-09-27T10:51:30Z</time>
      </trkpt>
      <trkpt lat="43.33473" lon="-0.53242">
        <ele>146.257813</ele>
        <time>2013-09-27T10:51:31Z</time>
      </trkpt>
      <trkpt lat="43.335" lon="-0.53228">
        <ele>148.18042</ele>
        <time>2013-09-27T10:51:46Z</time>
      </trkpt>
      <trkpt lat="43.33534" lon="-0.53231">
        <ele>150.583618</ele>
        <time>2013-09-27T10:52:03Z</time>
      </trkpt>
      <trkpt lat="43.33553" lon="-0.53233">
        <ele>153.467651</ele>
        <time>2013-09-27T10:52:13Z</time>
      </trkpt>
      <trkpt lat="43.33571" lon="-0.53236">
        <ele>155.870972</ele>
        <time>2013-09-27T10:52:23Z</time>
      </trkpt>
      <trkpt lat="43.33592" lon="-0.53238">
        <ele>156.832153</ele>
        <time>2013-09-27T10:52:35Z</time>
      </trkpt>
      <trkpt lat="43.33612" lon="-0.53242">
        <ele>161.158203</ele>
        <time>2013-09-27T10:52:48Z</time>
      </trkpt>
      <trkpt lat="43.33632" lon="-0.53249">
        <ele>162.119507</ele>
        <time>2013-09-27T10:53:01Z</time>
      </trkpt>
      <trkpt lat="43.33658" lon="-0.53264">
        <ele>165.003418</ele>
        <time>2013-09-27T10:53:17Z</time>
      </trkpt>
      <trkpt lat="43.3368" lon="-0.5329">
        <ele>166.926025</ele>
        <time>2013-09-27T10:53:31Z</time>
      </trkpt>
      <trkpt lat="43.33714" lon="-0.53311">
        <ele>168.368042</ele>
        <time>2013-09-27T10:53:51Z</time>
      </trkpt>
      <trkpt lat="43.33738" lon="-0.53303">
        <ele>171.252075</ele>
        <time>2013-09-27T10:54:06Z</time>
      </trkpt>
      <trkpt lat="43.33741" lon="-0.53303">
        <ele>172.213257</ele>
        <time>2013-09-27T10:54:08Z</time>
      </trkpt>
      <trkpt lat="43.33764" lon="-0.53308">
        <ele>173.655273</ele>
        <time>2013-09-27T10:54:23Z</time>
      </trkpt>
      <trkpt lat="43.33786" lon="-0.5331">
        <ele>175.09729</ele>
        <time>2013-09-27T10:54:36Z</time>
      </trkpt>
      <trkpt lat="43.33808" lon="-0.53307">
        <ele>177.02002</ele>
        <time>2013-09-27T10:54:50Z</time>
      </trkpt>
      <trkpt lat="43.33821" lon="-0.53305">
        <ele>180.865234</ele>
        <time>2013-09-27T10:54:58Z</time>
      </trkpt>
      <trkpt lat="43.33826" lon="-0.53305">
        <ele>180.865234</ele>
        <time>2013-09-27T10:55:02Z</time>
      </trkpt>
      <trkpt lat="43.33851" lon="-0.53304">
        <ele>183.268433</ele>
        <time>2013-09-27T10:55:18Z</time>
      </trkpt>
      <trkpt lat="43.33881" lon="-0.53309">
        <ele>184.710571</ele>
        <time>2013-09-27T10:55:34Z</time>
      </trkpt>
      <trkpt lat="43.339" lon="-0.53312">
        <ele>186.633179</ele>
        <time>2013-09-27T10:55:46Z</time>
      </trkpt>
      <trkpt lat="43.33925" lon="-0.53321">
        <ele>188.075073</ele>
        <time>2013-09-27T10:55:59Z</time>
      </trkpt>
      <trkpt lat="43.33947" lon="-0.53317">
        <ele>190.478394</ele>
        <time>2013-09-27T10:56:12Z</time>
      </trkpt>
      <trkpt lat="43.33967" lon="-0.53309">
        <ele>193.843018</ele>
        <time>2013-09-27T10:56:24Z</time>
      </trkpt>
      <trkpt lat="43.33985" lon="-0.53312">
        <ele>195.284912</ele>
        <time>2013-09-27T10:56:34Z</time>
      </trkpt>
      <trkpt lat="43.34012" lon="-0.53311">
        <ele>197.688232</ele>
        <time>2013-09-27T10:56:50Z</time>
      </trkpt>
      <trkpt lat="43.34035" lon="-0.53311">
        <ele>199.130127</ele>
        <time>2013-09-27T10:57:05Z</time>
      </trkpt>
      <trkpt lat="43.34043" lon="-0.53307">
        <ele>201.533569</ele>
        <time>2013-09-27T10:57:10Z</time>
      </trkpt>
      <trkpt lat="43.34063" lon="-0.53285">
        <ele>203.93689</ele>
        <time>2013-09-27T10:57:26Z</time>
      </trkpt>
      <trkpt lat="43.34079" lon="-0.53274">
        <ele>205.859497</ele>
        <time>2013-09-27T10:57:38Z</time>
      </trkpt>
      <trkpt lat="43.34101" lon="-0.53256">
        <ele>208.262817</ele>
        <time>2013-09-27T10:57:50Z</time>
      </trkpt>
      <trkpt lat="43.34102" lon="-0.53253">
        <ele>208.743408</ele>
        <time>2013-09-27T10:57:51Z</time>
      </trkpt>
      <trkpt lat="43.34118" lon="-0.53241">
        <ele>211.146729</ele>
        <time>2013-09-27T10:58:01Z</time>
      </trkpt>
      <trkpt lat="43.34125" lon="-0.53227">
        <ele>213.069336</ele>
        <time>2013-09-27T10:58:09Z</time>
      </trkpt>
      <trkpt lat="43.34137" lon="-0.53201">
        <ele>215.472656</ele>
        <time>2013-09-27T10:58:24Z</time>
      </trkpt>
      <trkpt lat="43.34139" lon="-0.53188">
        <ele>216.43396</ele>
        <time>2013-09-27T10:58:31Z</time>
      </trkpt>
      <trkpt lat="43.34153" lon="-0.53186">
        <ele>218.83728</ele>
        <time>2013-09-27T10:58:41Z</time>
      </trkpt>
      <trkpt lat="43.34165" lon="-0.53186">
        <ele>220.279175</ele>
        <time>2013-09-27T10:58:49Z</time>
      </trkpt>
      <trkpt lat="43.34182" lon="-0.53177">
        <ele>221.240601</ele>
        <time>2013-09-27T10:59:02Z</time>
      </trkpt>
      <trkpt lat="43.34199" lon="-0.5316">
        <ele>220.279175</ele>
        <time>2013-09-27T10:59:13Z</time>
      </trkpt>
      <trkpt lat="43.34202" lon="-0.53155">
        <ele>219.798584</ele>
        <time>2013-09-27T10:59:15Z</time>
      </trkpt>
      <trkpt lat="43.34239" lon="-0.53116">
        <ele>221.240601</ele>
        <time>2013-09-27T10:59:28Z</time>
      </trkpt>
      <trkpt lat="43.34259" lon="-0.53078">
        <ele>220.759888</ele>
        <time>2013-09-27T10:59:38Z</time>
      </trkpt>
      <trkpt lat="43.34283" lon="-0.53054">
        <ele>222.201782</ele>
        <time>2013-09-27T10:59:49Z</time>
      </trkpt>
      <trkpt lat="43.34326" lon="-0.53036">
        <ele>221.721191</ele>
        <time>2013-09-27T10:59:59Z</time>
      </trkpt>
      <trkpt lat="43.34342" lon="-0.53031">
        <ele>220.759888</ele>
        <time>2013-09-27T11:00:02Z</time>
      </trkpt>
      <trkpt lat="43.34369" lon="-0.53036">
        <ele>218.356567</ele>
        <time>2013-09-27T11:00:06Z</time>
      </trkpt>
      <trkpt lat="43.34386" lon="-0.5305">
        <ele>220.759888</ele>
        <time>2013-09-27T11:00:11Z</time>
      </trkpt>
      <trkpt lat="43.34413" lon="-0.53069">
        <ele>222.682495</ele>
        <time>2013-09-27T11:00:20Z</time>
      </trkpt>
      <trkpt lat="43.34421" lon="-0.5307">
        <ele>223.163208</ele>
        <time>2013-09-27T11:00:22Z</time>
      </trkpt>
      <trkpt lat="43.34426" lon="-0.53078">
        <ele>224.124512</ele>
        <time>2013-09-27T11:00:26Z</time>
      </trkpt>
      <trkpt lat="43.34429" lon="-0.53132">
        <ele>223.163208</ele>
        <time>2013-09-27T11:00:37Z</time>
      </trkpt>
      <trkpt lat="43.3443" lon="-0.53156">
        <ele>223.643799</ele>
        <time>2013-09-27T11:00:41Z</time>
      </trkpt>
      <trkpt lat="43.34435" lon="-0.53189">
        <ele>221.721191</ele>
        <time>2013-09-27T11:00:45Z</time>
      </trkpt>
      <trkpt lat="43.34454" lon="-0.53245">
        <ele>222.682495</ele>
        <time>2013-09-27T11:00:54Z</time>
      </trkpt>
      <trkpt lat="43.3447" lon="-0.5328">
        <ele>224.605225</ele>
        <time>2013-09-27T11:01:00Z</time>
      </trkpt>
      <trkpt lat="43.34494" lon="-0.53331">
        <ele>225.566528</ele>
        <time>2013-09-27T11:01:11Z</time>
      </trkpt>
      <trkpt lat="43.34496" lon="-0.53353">
        <ele>222.201782</ele>
        <time>2013-09-27T11:01:15Z</time>
      </trkpt>
      <trkpt lat="43.34498" lon="-0.53368">
        <ele>220.759888</ele>
        <time>2013-09-27T11:01:17Z</time>
      </trkpt>
      <trkpt lat="43.34504" lon="-0.53395">
        <ele>219.317993</ele>
        <time>2013-09-27T11:01:20Z</time>
      </trkpt>
      <trkpt lat="43.34513" lon="-0.53423">
        <ele>219.317993</ele>
        <time>2013-09-27T11:01:23Z</time>
      </trkpt>
      <trkpt lat="43.34518" lon="-0.53438">
        <ele>218.83728</ele>
        <time>2013-09-27T11:01:25Z</time>
      </trkpt>
      <trkpt lat="43.34524" lon="-0.53461">
        <ele>218.356567</ele>
        <time>2013-09-27T11:01:28Z</time>
      </trkpt>
      <trkpt lat="43.34531" lon="-0.53506">
        <ele>219.317993</ele>
        <time>2013-09-27T11:01:35Z</time>
      </trkpt>
      <trkpt lat="43.34528" lon="-0.53593">
        <ele>219.317993</ele>
        <time>2013-09-27T11:01:47Z</time>
      </trkpt>
      <trkpt lat="43.34542" lon="-0.53637">
        <ele>222.682495</ele>
        <time>2013-09-27T11:01:57Z</time>
      </trkpt>
      <trkpt lat="43.34562" lon="-0.53651">
        <ele>226.047119</ele>
        <time>2013-09-27T11:02:05Z</time>
      </trkpt>
      <trkpt lat="43.34564" lon="-0.53652">
        <ele>226.047119</ele>
        <time>2013-09-27T11:02:06Z</time>
      </trkpt>
      <trkpt lat="43.34594" lon="-0.5364">
        <ele>225.566528</ele>
        <time>2013-09-27T11:02:21Z</time>
      </trkpt>
      <trkpt lat="43.34604" lon="-0.53631">
        <ele>224.605225</ele>
        <time>2013-09-27T11:02:24Z</time>
      </trkpt>
      <trkpt lat="43.34616" lon="-0.53618">
        <ele>222.682495</ele>
        <time>2013-09-27T11:02:27Z</time>
      </trkpt>
      <trkpt lat="43.34633" lon="-0.53599">
        <ele>221.240601</ele>
        <time>2013-09-27T11:02:30Z</time>
      </trkpt>
      <trkpt lat="43.34647" lon="-0.53572">
        <ele>219.317993</ele>
        <time>2013-09-27T11:02:34Z</time>
      </trkpt>
      <trkpt lat="43.34655" lon="-0.53538">
        <ele>219.317993</ele>
        <time>2013-09-27T11:02:38Z</time>
      </trkpt>
      <trkpt lat="43.34663" lon="-0.5352">
        <ele>217.875977</ele>
        <time>2013-09-27T11:02:40Z</time>
      </trkpt>
      <trkpt lat="43.34681" lon="-0.53451">
        <ele>214.991943</ele>
        <time>2013-09-27T11:02:45Z</time>
      </trkpt>
      <trkpt lat="43.34697" lon="-0.53411">
        <ele>213.069336</ele>
        <time>2013-09-27T11:02:49Z</time>
      </trkpt>
      <trkpt lat="43.34703" lon="-0.53368">
        <ele>212.108032</ele>
        <time>2013-09-27T11:02:53Z</time>
      </trkpt>
      <trkpt lat="43.34709" lon="-0.53303">
        <ele>210.666016</ele>
        <time>2013-09-27T11:03:00Z</time>
      </trkpt>
      <trkpt lat="43.34726" lon="-0.53259">
        <ele>210.185425</ele>
        <time>2013-09-27T11:03:06Z</time>
      </trkpt>
      <trkpt lat="43.34767" lon="-0.53202">
        <ele>208.743408</ele>
        <time>2013-09-27T11:03:17Z</time>
      </trkpt>
      <trkpt lat="43.34783" lon="-0.53183">
        <ele>207.301392</ele>
        <time>2013-09-27T11:03:20Z</time>
      </trkpt>
      <trkpt lat="43.34788" lon="-0.53177">
        <ele>207.301392</ele>
        <time>2013-09-27T11:03:21Z</time>
      </trkpt>
      <trkpt lat="43.34813" lon="-0.53164">
        <ele>205.859497</ele>
        <time>2013-09-27T11:03:25Z</time>
      </trkpt>
      <trkpt lat="43.3485" lon="-0.53166">
        <ele>203.93689</ele>
        <time>2013-09-27T11:03:31Z</time>
      </trkpt>
      <trkpt lat="43.34871" lon="-0.53169">
        <ele>205.378784</ele>
        <time>2013-09-27T11:03:36Z</time>
      </trkpt>
      <trkpt lat="43.34911" lon="-0.53171">
        <ele>208.262817</ele>
        <time>2013-09-27T11:03:49Z</time>
      </trkpt>
      <trkpt lat="43.34932" lon="-0.53193">
        <ele>210.185425</ele>
        <time>2013-09-27T11:03:59Z</time>
      </trkpt>
      <trkpt lat="43.34957" lon="-0.53233">
        <ele>210.666016</ele>
        <time>2013-09-27T11:04:12Z</time>
      </trkpt>
      <trkpt lat="43.34966" lon="-0.53275">
        <ele>210.185425</ele>
        <time>2013-09-27T11:04:25Z</time>
      </trkpt>
      <trkpt lat="43.34973" lon="-0.53309">
        <ele>208.743408</ele>
        <time>2013-09-27T11:04:30Z</time>
      </trkpt>
      <trkpt lat="43.34995" lon="-0.53362">
        <ele>208.262817</ele>
        <time>2013-09-27T11:04:37Z</time>
      </trkpt>
      <trkpt lat="43.35003" lon="-0.53474">
        <ele>203.93689</ele>
        <time>2013-09-27T11:04:50Z</time>
      </trkpt>
      <trkpt lat="43.35" lon="-0.53507">
        <ele>204.41748</ele>
        <time>2013-09-27T11:04:54Z</time>
      </trkpt>
      <trkpt lat="43.35004" lon="-0.53624">
        <ele>203.456177</ele>
        <time>2013-09-27T11:05:10Z</time>
      </trkpt>
      <trkpt lat="43.35036" lon="-0.53722">
        <ele>200.572266</ele>
        <time>2013-09-27T11:05:23Z</time>
      </trkpt>
      <trkpt lat="43.35053" lon="-0.53797">
        <ele>202.975464</ele>
        <time>2013-09-27T11:05:38Z</time>
      </trkpt>
      <trkpt lat="43.35056" lon="-0.53809">
        <ele>204.898071</ele>
        <time>2013-09-27T11:05:41Z</time>
      </trkpt>
      <trkpt lat="43.35063" lon="-0.5386">
        <ele>206.820679</ele>
        <time>2013-09-27T11:05:53Z</time>
      </trkpt>
      <trkpt lat="43.35063" lon="-0.53923">
        <ele>206.820679</ele>
        <time>2013-09-27T11:06:06Z</time>
      </trkpt>
      <trkpt lat="43.35063" lon="-0.53936">
        <ele>206.820679</ele>
        <time>2013-09-27T11:06:08Z</time>
      </trkpt>
      <trkpt lat="43.35068" lon="-0.53957">
        <ele>207.301392</ele>
        <time>2013-09-27T11:06:12Z</time>
      </trkpt>
      <trkpt lat="43.35092" lon="-0.54005">
        <ele>209.224121</ele>
        <time>2013-09-27T11:06:25Z</time>
      </trkpt>
      <trkpt lat="43.35116" lon="-0.54029">
        <ele>209.224121</ele>
        <time>2013-09-27T11:06:35Z</time>
      </trkpt>
      <trkpt lat="43.35156" lon="-0.54043">
        <ele>208.743408</ele>
        <time>2013-09-27T11:06:47Z</time>
      </trkpt>
      <trkpt lat="43.35176" lon="-0.54053">
        <ele>207.782104</ele>
        <time>2013-09-27T11:06:51Z</time>
      </trkpt>
      <trkpt lat="43.35182" lon="-0.54057">
        <ele>207.301392</ele>
        <time>2013-09-27T11:06:52Z</time>
      </trkpt>
      <trkpt lat="43.35192" lon="-0.54088">
        <ele>203.93689</ele>
        <time>2013-09-27T11:06:58Z</time>
      </trkpt>
      <trkpt lat="43.35188" lon="-0.54102">
        <ele>201.533569</ele>
        <time>2013-09-27T11:07:00Z</time>
      </trkpt>
      <trkpt lat="43.3518" lon="-0.54123">
        <ele>201.052856</ele>
        <time>2013-09-27T11:07:03Z</time>
      </trkpt>
      <trkpt lat="43.35176" lon="-0.54137">
        <ele>200.572266</ele>
        <time>2013-09-27T11:07:05Z</time>
      </trkpt>
      <trkpt lat="43.35171" lon="-0.54161">
        <ele>197.20752</ele>
        <time>2013-09-27T11:07:08Z</time>
      </trkpt>
      <trkpt lat="43.35174" lon="-0.542">
        <ele>194.32373</ele>
        <time>2013-09-27T11:07:13Z</time>
      </trkpt>
      <trkpt lat="43.35184" lon="-0.54228">
        <ele>191.920288</ele>
        <time>2013-09-27T11:07:16Z</time>
      </trkpt>
      <trkpt lat="43.35193" lon="-0.54269">
        <ele>189.516968</ele>
        <time>2013-09-27T11:07:20Z</time>
      </trkpt>
      <trkpt lat="43.35199" lon="-0.54299">
        <ele>189.036377</ele>
        <time>2013-09-27T11:07:23Z</time>
      </trkpt>
      <trkpt lat="43.35192" lon="-0.54353">
        <ele>188.075073</ele>
        <time>2013-09-27T11:07:30Z</time>
      </trkpt>
      <trkpt lat="43.35197" lon="-0.54361">
        <ele>188.555786</ele>
        <time>2013-09-27T11:07:35Z</time>
      </trkpt>
      <trkpt lat="43.35212" lon="-0.54358">
        <ele>191.920288</ele>
        <time>2013-09-27T11:07:45Z</time>
      </trkpt>
      <trkpt lat="43.35217" lon="-0.54358">
        <ele>193.843018</ele>
        <time>2013-09-27T11:07:49Z</time>
      </trkpt>
      <trkpt lat="43.35232" lon="-0.54355">
        <ele>197.20752</ele>
        <time>2013-09-27T11:08:01Z</time>
      </trkpt>
      <trkpt lat="43.35249" lon="-0.54351">
        <ele>200.572266</ele>
        <time>2013-09-27T11:08:15Z</time>
      </trkpt>
      <trkpt lat="43.35268" lon="-0.54349">
        <ele>203.456177</ele>
        <time>2013-09-27T11:08:30Z</time>
      </trkpt>
      <trkpt lat="43.35291" lon="-0.54344">
        <ele>206.820679</ele>
        <time>2013-09-27T11:08:49Z</time>
      </trkpt>
      <trkpt lat="43.35296" lon="-0.54344">
        <ele>207.301392</ele>
        <time>2013-09-27T11:08:53Z</time>
      </trkpt>
      <trkpt lat="43.35298" lon="-0.5437">
        <ele>209.704834</ele>
        <time>2013-09-27T11:09:08Z</time>
      </trkpt>
      <trkpt lat="43.35293" lon="-0.5443">
        <ele>207.782104</ele>
        <time>2013-09-27T11:09:25Z</time>
      </trkpt>
      <trkpt lat="43.35298" lon="-0.54509">
        <ele>207.782104</ele>
        <time>2013-09-27T11:09:41Z</time>
      </trkpt>
      <trkpt lat="43.35294" lon="-0.5458">
        <ele>209.704834</ele>
        <time>2013-09-27T11:09:54Z</time>
      </trkpt>
      <trkpt lat="43.35289" lon="-0.54625">
        <ele>210.666016</ele>
        <time>2013-09-27T11:10:05Z</time>
      </trkpt>
      <trkpt lat="43.35299" lon="-0.54692">
        <ele>211.146729</ele>
        <time>2013-09-27T11:10:22Z</time>
      </trkpt>
      <trkpt lat="43.35302" lon="-0.54737">
        <ele>207.782104</ele>
        <time>2013-09-27T11:10:34Z</time>
      </trkpt>
      <trkpt lat="43.35302" lon="-0.54741">
        <ele>207.782104</ele>
        <time>2013-09-27T11:10:35Z</time>
      </trkpt>
      <trkpt lat="43.353" lon="-0.54763">
        <ele>204.41748</ele>
        <time>2013-09-27T11:10:39Z</time>
      </trkpt>
      <trkpt lat="43.353" lon="-0.54768">
        <ele>204.41748</ele>
        <time>2013-09-27T11:10:40Z</time>
      </trkpt>
      <trkpt lat="43.35297" lon="-0.54788">
        <ele>202.975464</ele>
        <time>2013-09-27T11:10:44Z</time>
      </trkpt>
      <trkpt lat="43.35294" lon="-0.54813">
        <ele>199.130127</ele>
        <time>2013-09-27T11:10:48Z</time>
      </trkpt>
      <trkpt lat="43.35294" lon="-0.54818">
        <ele>199.61084</ele>
        <time>2013-09-27T11:10:49Z</time>
      </trkpt>
      <trkpt lat="43.35293" lon="-0.54829">
        <ele>198.168945</ele>
        <time>2013-09-27T11:10:51Z</time>
      </trkpt>
      <trkpt lat="43.35291" lon="-0.54859">
        <ele>195.765625</ele>
        <time>2013-09-27T11:10:57Z</time>
      </trkpt>
      <trkpt lat="43.35292" lon="-0.5488">
        <ele>192.401123</ele>
        <time>2013-09-27T11:11:02Z</time>
      </trkpt>
      <trkpt lat="43.35295" lon="-0.549">
        <ele>189.516968</ele>
        <time>2013-09-27T11:11:08Z</time>
      </trkpt>
      <trkpt lat="43.353" lon="-0.54919">
        <ele>185.671753</ele>
        <time>2013-09-27T11:11:14Z</time>
      </trkpt>
      <trkpt lat="43.35301" lon="-0.54923">
        <ele>185.671753</ele>
        <time>2013-09-27T11:11:15Z</time>
      </trkpt>
      <trkpt lat="43.35303" lon="-0.54936">
        <ele>182.307129</ele>
        <time>2013-09-27T11:11:18Z</time>
      </trkpt>
      <trkpt lat="43.35304" lon="-0.54941">
        <ele>183.268433</ele>
        <time>2013-09-27T11:11:19Z</time>
      </trkpt>
      <trkpt lat="43.35305" lon="-0.54952">
        <ele>180.865234</ele>
        <time>2013-09-27T11:11:28Z</time>
      </trkpt>
      <trkpt lat="43.35312" lon="-0.54987">
        <ele>178.461914</ele>
        <time>2013-09-27T11:11:38Z</time>
      </trkpt>
      <trkpt lat="43.35313" lon="-0.55001">
        <ele>175.09729</ele>
        <time>2013-09-27T11:11:41Z</time>
      </trkpt>
      <trkpt lat="43.35315" lon="-0.55021">
        <ele>171.732666</ele>
        <time>2013-09-27T11:11:45Z</time>
      </trkpt>
      <trkpt lat="43.35317" lon="-0.55038">
        <ele>168.368042</ele>
        <time>2013-09-27T11:11:49Z</time>
      </trkpt>
      <trkpt lat="43.35317" lon="-0.5505">
        <ele>165.484131</ele>
        <time>2013-09-27T11:11:52Z</time>
      </trkpt>
      <trkpt lat="43.35317" lon="-0.55054">
        <ele>165.484131</ele>
        <time>2013-09-27T11:11:53Z</time>
      </trkpt>
      <trkpt lat="43.35318" lon="-0.55066">
        <ele>164.042114</ele>
        <time>2013-09-27T11:11:56Z</time>
      </trkpt>
      <trkpt lat="43.35318" lon="-0.55077">
        <ele>162.119507</ele>
        <time>2013-09-27T11:11:58Z</time>
      </trkpt>
      <trkpt lat="43.35319" lon="-0.55093">
        <ele>158.754761</ele>
        <time>2013-09-27T11:12:01Z</time>
      </trkpt>
      <trkpt lat="43.3532" lon="-0.55111">
        <ele>156.351563</ele>
        <time>2013-09-27T11:12:05Z</time>
      </trkpt>
      <trkpt lat="43.3532" lon="-0.55118">
        <ele>154.909546</ele>
        <time>2013-09-27T11:12:07Z</time>
      </trkpt>
      <trkpt lat="43.3532" lon="-0.55127">
        <ele>154.428955</ele>
        <time>2013-09-27T11:12:10Z</time>
      </trkpt>
      <trkpt lat="43.35313" lon="-0.55136">
        <ele>152.986938</ele>
        <time>2013-09-27T11:12:14Z</time>
      </trkpt>
      <trkpt lat="43.35294" lon="-0.55161">
        <ele>148.18042</ele>
        <time>2013-09-27T11:12:24Z</time>
      </trkpt>
      <trkpt lat="43.35292" lon="-0.55164">
        <ele>148.18042</ele>
        <time>2013-09-27T11:12:25Z</time>
      </trkpt>
      <trkpt lat="43.35282" lon="-0.55178">
        <ele>145.7771</ele>
        <time>2013-09-27T11:12:30Z</time>
      </trkpt>
      <trkpt lat="43.35274" lon="-0.55199">
        <ele>142.893066</ele>
        <time>2013-09-27T11:12:35Z</time>
      </trkpt>
      <trkpt lat="43.35255" lon="-0.55219">
        <ele>141.45105</ele>
        <time>2013-09-27T11:12:40Z</time>
      </trkpt>
      <trkpt lat="43.35237" lon="-0.55244">
        <ele>137.125244</ele>
        <time>2013-09-27T11:12:44Z</time>
      </trkpt>
      <trkpt lat="43.35226" lon="-0.55258">
        <ele>132.799316</ele>
        <time>2013-09-27T11:12:47Z</time>
      </trkpt>
      <trkpt lat="43.35224" lon="-0.55261">
        <ele>132.799316</ele>
        <time>2013-09-27T11:12:48Z</time>
      </trkpt>
      <trkpt lat="43.35221" lon="-0.55299">
        <ele>131.837891</ele>
        <time>2013-09-27T11:12:55Z</time>
      </trkpt>
      <trkpt lat="43.3522" lon="-0.55318">
        <ele>130.876709</ele>
        <time>2013-09-27T11:12:58Z</time>
      </trkpt>
      <trkpt lat="43.35225" lon="-0.55346">
        <ele>130.876709</ele>
        <time>2013-09-27T11:13:02Z</time>
      </trkpt>
      <trkpt lat="43.35211" lon="-0.55382">
        <ele>129.434692</ele>
        <time>2013-09-27T11:13:09Z</time>
      </trkpt>
      <trkpt lat="43.35206" lon="-0.55384">
        <ele>129.915283</ele>
        <time>2013-09-27T11:13:10Z</time>
      </trkpt>
      <trkpt lat="43.3519" lon="-0.55386">
        <ele>128.954102</ele>
        <time>2013-09-27T11:13:13Z</time>
      </trkpt>
      <trkpt lat="43.35168" lon="-0.55374">
        <ele>128.954102</ele>
        <time>2013-09-27T11:13:18Z</time>
      </trkpt>
      <trkpt lat="43.35095" lon="-0.55304">
        <ele>129.434692</ele>
        <time>2013-09-27T11:13:36Z</time>
      </trkpt>
      <trkpt lat="43.35067" lon="-0.55275">
        <ele>129.915283</ele>
        <time>2013-09-27T11:13:43Z</time>
      </trkpt>
      <trkpt lat="43.35041" lon="-0.55289">
        <ele>129.434692</ele>
        <time>2013-09-27T11:13:50Z</time>
      </trkpt>
      <trkpt lat="43.34983" lon="-0.55436">
        <ele>128.954102</ele>
        <time>2013-09-27T11:14:12Z</time>
      </trkpt>
      <trkpt lat="43.34978" lon="-0.55448">
        <ele>128.473389</ele>
        <time>2013-09-27T11:14:14Z</time>
      </trkpt>
      <trkpt lat="43.34977" lon="-0.55477">
        <ele>128.473389</ele>
        <time>2013-09-27T11:14:18Z</time>
      </trkpt>
      <trkpt lat="43.34997" lon="-0.5555">
        <ele>128.473389</ele>
        <time>2013-09-27T11:14:28Z</time>
      </trkpt>
      <trkpt lat="43.34993" lon="-0.55599">
        <ele>127.992554</ele>
        <time>2013-09-27T11:14:35Z</time>
      </trkpt>
      <trkpt lat="43.34966" lon="-0.55642">
        <ele>128.473389</ele>
        <time>2013-09-27T11:14:43Z</time>
      </trkpt>
      <trkpt lat="43.34963" lon="-0.55668">
        <ele>127.992554</ele>
        <time>2013-09-27T11:14:47Z</time>
      </trkpt>
      <trkpt lat="43.35001" lon="-0.55778">
        <ele>127.511963</ele>
        <time>2013-09-27T11:15:04Z</time>
      </trkpt>
      <trkpt lat="43.35045" lon="-0.55902">
        <ele>127.511963</ele>
        <time>2013-09-27T11:15:23Z</time>
      </trkpt>
      <trkpt lat="43.35099" lon="-0.56061">
        <ele>127.511963</ele>
        <time>2013-09-27T11:15:46Z</time>
      </trkpt>
      <trkpt lat="43.35116" lon="-0.56111">
        <ele>127.511963</ele>
        <time>2013-09-27T11:15:53Z</time>
      </trkpt>
      <trkpt lat="43.3512" lon="-0.56134">
        <ele>127.031372</ele>
        <time>2013-09-27T11:15:56Z</time>
      </trkpt>
      <trkpt lat="43.35119" lon="-0.56242">
        <ele>127.511963</ele>
        <time>2013-09-27T11:16:10Z</time>
      </trkpt>
      <trkpt lat="43.35114" lon="-0.56382">
        <ele>127.511963</ele>
        <time>2013-09-27T11:16:29Z</time>
      </trkpt>
      <trkpt lat="43.35127" lon="-0.56416">
        <ele>127.031372</ele>
        <time>2013-09-27T11:16:36Z</time>
      </trkpt>
      <trkpt lat="43.35133" lon="-0.56438">
        <ele>127.031372</ele>
        <time>2013-09-27T11:16:40Z</time>
      </trkpt>
      <trkpt lat="43.35146" lon="-0.56457">
        <ele>127.511963</ele>
        <time>2013-09-27T11:16:45Z</time>
      </trkpt>
      <trkpt lat="43.35239" lon="-0.56481">
        <ele>127.031372</ele>
        <time>2013-09-27T11:17:04Z</time>
      </trkpt>
      <trkpt lat="43.35325" lon="-0.5648">
        <ele>126.550659</ele>
        <time>2013-09-27T11:17:21Z</time>
      </trkpt>
      <trkpt lat="43.35407" lon="-0.5648">
        <ele>126.069946</ele>
        <time>2013-09-27T11:17:37Z</time>
      </trkpt>
      <trkpt lat="43.35449" lon="-0.56482">
        <ele>126.069946</ele>
        <time>2013-09-27T11:17:46Z</time>
      </trkpt>
      <trkpt lat="43.35467" lon="-0.56507">
        <ele>125.589355</ele>
        <time>2013-09-27T11:17:52Z</time>
      </trkpt>
      <trkpt lat="43.35489" lon="-0.56628">
        <ele>125.589355</ele>
        <time>2013-09-27T11:18:11Z</time>
      </trkpt>
      <trkpt lat="43.35502" lon="-0.56656">
        <ele>125.589355</ele>
        <time>2013-09-27T11:18:16Z</time>
      </trkpt>
      <trkpt lat="43.35507" lon="-0.56674">
        <ele>126.069946</ele>
        <time>2013-09-27T11:18:19Z</time>
      </trkpt>
      <trkpt lat="43.35521" lon="-0.56811">
        <ele>126.069946</ele>
        <time>2013-09-27T11:18:40Z</time>
      </trkpt>
      <trkpt lat="43.35525" lon="-0.56853">
        <ele>125.108765</ele>
        <time>2013-09-27T11:18:48Z</time>
      </trkpt>
      <trkpt lat="43.35538" lon="-0.56858">
        <ele>126.550659</ele>
        <time>2013-09-27T11:18:52Z</time>
      </trkpt>
      <trkpt lat="43.35595" lon="-0.56822">
        <ele>125.108765</ele>
        <time>2013-09-27T11:19:05Z</time>
      </trkpt>
      <trkpt lat="43.35696" lon="-0.56754">
        <ele>126.069946</ele>
        <time>2013-09-27T11:19:28Z</time>
      </trkpt>
      <trkpt lat="43.35723" lon="-0.56733">
        <ele>125.589355</ele>
        <time>2013-09-27T11:19:36Z</time>
      </trkpt>
      <trkpt lat="43.35724" lon="-0.56709">
        <ele>126.550659</ele>
        <time>2013-09-27T11:19:40Z</time>
      </trkpt>
      <trkpt lat="43.35721" lon="-0.56695">
        <ele>126.550659</ele>
        <time>2013-09-27T11:19:42Z</time>
      </trkpt>
      <trkpt lat="43.3569" lon="-0.56603">
        <ele>126.069946</ele>
        <time>2013-09-27T11:19:55Z</time>
      </trkpt>
      <trkpt lat="43.35705" lon="-0.56553">
        <ele>127.511963</ele>
        <time>2013-09-27T11:20:03Z</time>
      </trkpt>
      <trkpt lat="43.35805" lon="-0.56506">
        <ele>127.511963</ele>
        <time>2013-09-27T11:20:21Z</time>
      </trkpt>
      <trkpt lat="43.3581" lon="-0.56505">
        <ele>127.511963</ele>
        <time>2013-09-27T11:20:22Z</time>
      </trkpt>
      <trkpt lat="43.35817" lon="-0.56473">
        <ele>127.511963</ele>
        <time>2013-09-27T11:20:29Z</time>
      </trkpt>
      <trkpt lat="43.35815" lon="-0.56457">
        <ele>128.473389</ele>
        <time>2013-09-27T11:20:33Z</time>
      </trkpt>
      <trkpt lat="43.35815" lon="-0.56456">
        <ele>127.031372</ele>
        <time>2013-09-27T11:20:35Z</time>
      </trkpt>
      <trkpt lat="43.35811" lon="-0.56458">
        <ele>127.031372</ele>
        <time>2013-09-27T11:20:55Z</time>
      </trkpt>
      <trkpt lat="43.35812" lon="-0.56457">
        <ele>126.069946</ele>
        <time>2013-09-27T11:20:58Z</time>
      </trkpt>
    </trkseg>
  </trk>
</gpx>